<?xml version="1.0" encoding="UTF-8" standalone="no" ?><gpx xmlns="http://www.topografix.com/GPX/1/1" xmlns:gpxx="http://www.garmin.com/xmlschemas/GpxExtensions/v3" xmlns:wptx1="http://www.garmin.com/xmlschemas/WaypointExtension/v1" xmlns:gpxtpx="http://www.garmin.com/xmlschemas/TrackPointExtension/v1" creator="GuideVTT.com" version="1.1" xmlns:xsi="http://www.w3.org/2001/XMLSchema-instance" xsi:schemaLocation="http://www.topografix.com/GPX/1/1 http://www.topografix.com/GPX/1/1/gpx.xsd http://www.garmin.com/xmlschemas/GpxExtensions/v3 http://www8.garmin.com/xmlschemas/GpxExtensionsv3.xsd http://www.garmin.com/xmlschemas/WaypointExtension/v1 http://www8.garmin.com/xmlschemas/WaypointExtensionv1.xsd http://www.garmin.com/xmlschemas/TrackPointExtension/v1 http://www.garmin.com/xmlschemas/TrackPointExtensionv1.xsd">
<metadata><link href="http://www.garmin.com"><text>Garmin International</text></link><time>2013-06-22T15:13:50Z</time></metadata>
<trk><name>vuiteboeuf1472d.gpx</name><extensions><gpxx:TrackExtension><gpxx:DisplayColor>Cyan</gpxx:DisplayColor></gpxx:TrackExtension></extensions><trkseg>
<trkpt lat="46.807474161763444" lon="6.561107967373614"><ele></ele><time>2014-6-22T14:40:14Z</time></trkpt>
<trkpt lat="46.80777449242569" lon="6.561561667836532"><ele></ele><time>2014-6-22T14:40:17Z</time></trkpt>
<trkpt lat="46.808184757512045" lon="6.56227563382179"><ele></ele><time>2014-6-22T14:40:20Z</time></trkpt>
<trkpt lat="46.80875042539478" lon="6.563314651325938"><ele></ele><time>2014-6-22T14:40:23Z</time></trkpt>
<trkpt lat="46.80920565412222" lon="6.564027917366008"><ele></ele><time>2014-6-22T14:40:26Z</time></trkpt>
<trkpt lat="46.809662869348095" lon="6.565003210050092"><ele></ele><time>2014-6-22T14:40:29Z</time></trkpt>
<trkpt lat="46.809919005708934" lon="6.565562481967694"><ele></ele><time>2014-6-22T14:40:32Z</time></trkpt>
<trkpt lat="46.810367956005116" lon="6.565450425455944"><ele></ele><time>2014-6-22T14:40:35Z</time></trkpt>
<trkpt lat="46.8107682492404" lon="6.5648543552083085"><ele></ele><time>2014-6-22T14:40:38Z</time></trkpt>
<trkpt lat="46.8112967853539" lon="6.56337832257097"><ele></ele><time>2014-6-22T14:40:41Z</time></trkpt>
<trkpt lat="46.811666589561575" lon="6.562324120571635"><ele></ele><time>2014-6-22T14:40:44Z</time></trkpt>
<trkpt lat="46.81206456821129" lon="6.561426682685795"><ele></ele><time>2014-6-22T14:40:47Z</time></trkpt>
<trkpt lat="46.812285442193335" lon="6.5608989862258085"><ele></ele><time>2014-6-22T14:40:50Z</time></trkpt>
<trkpt lat="46.81239717392329" lon="6.560215819084938"><ele></ele><time>2014-6-22T14:40:53Z</time></trkpt>
<trkpt lat="46.81243333560954" lon="6.559062166908037"><ele></ele><time>2014-6-22T14:40:56Z</time></trkpt>
<trkpt lat="46.81249078604406" lon="6.558340567002168"><ele></ele><time>2014-6-22T14:40:59Z</time></trkpt>
<trkpt lat="46.81251375778461" lon="6.557816071968465"><ele></ele><time>2014-6-22T14:41:2Z</time></trkpt>
<trkpt lat="46.81251275416221" lon="6.557685057868706"><ele></ele><time>2014-6-22T14:41:5Z</time></trkpt>
<trkpt lat="46.812712950293225" lon="6.557983172692485"><ele></ele><time>2014-6-22T14:41:8Z</time></trkpt>
<trkpt lat="46.812969020566996" lon="6.558529341400341"><ele></ele><time>2014-6-22T14:41:11Z</time></trkpt>
<trkpt lat="46.81330463933" lon="6.558890778153582"><ele></ele><time>2014-6-22T14:41:14Z</time></trkpt>
<trkpt lat="46.81373789835414" lon="6.559080290659616"><ele></ele><time>2014-6-22T14:41:17Z</time></trkpt>
<trkpt lat="46.814208338842064" lon="6.559426443925194"><ele></ele><time>2014-6-22T14:41:20Z</time></trkpt>
<trkpt lat="46.81437124886431" lon="6.559554834220396"><ele></ele><time>2014-6-22T14:41:23Z</time></trkpt>
<trkpt lat="46.81471036743759" lon="6.56037485491747"><ele></ele><time>2014-6-22T14:41:26Z</time></trkpt>
<trkpt lat="46.81480551776553" lon="6.561054698810336"><ele></ele><time>2014-6-22T14:41:29Z</time></trkpt>
<trkpt lat="46.814809815711" lon="6.561618083680528"><ele></ele><time>2014-6-22T14:41:32Z</time></trkpt>
<trkpt lat="46.81513362443842" lon="6.562792170530219"><ele></ele><time>2014-6-22T14:41:35Z</time></trkpt>
<trkpt lat="46.81526904705808" lon="6.562855499066548"><ele></ele><time>2014-6-22T14:41:38Z</time></trkpt>
<trkpt lat="46.81585371644406" lon="6.562846044728239"><ele></ele><time>2014-6-22T14:41:41Z</time></trkpt>
<trkpt lat="46.81572178544917" lon="6.563241292470556"><ele></ele><time>2014-6-22T14:41:44Z</time></trkpt>
<trkpt lat="46.8159796244328" lon="6.564023357332933"><ele></ele><time>2014-6-22T14:41:47Z</time></trkpt>
<trkpt lat="46.81639485013008" lon="6.565392568947415"><ele></ele><time>2014-6-22T14:41:50Z</time></trkpt>
<trkpt lat="46.816736113175274" lon="6.566500911015874"><ele></ele><time>2014-6-22T14:41:53Z</time></trkpt>
<trkpt lat="46.81715051554751" lon="6.567765340457775"><ele></ele><time>2014-6-22T14:41:56Z</time></trkpt>
<trkpt lat="46.81727141698048" lon="6.568287563534038"><ele></ele><time>2014-6-22T14:41:59Z</time></trkpt>
<trkpt lat="46.81711347352451" lon="6.568814267260704"><ele></ele><time>2014-6-22T14:42:2Z</time></trkpt>
<trkpt lat="46.81689335544783" lon="6.5694467984666165"><ele></ele><time>2014-6-22T14:42:5Z</time></trkpt>
<trkpt lat="46.81689385055344" lon="6.569512310941471"><ele></ele><time>2014-6-22T14:42:8Z</time></trkpt>
<trkpt lat="46.81688568076591" lon="6.569521649185518"><ele></ele><time>2014-6-22T14:42:11Z</time></trkpt>
<trkpt lat="46.81688647443239" lon="6.569626469277964"><ele></ele><time>2014-6-22T14:42:14Z</time></trkpt>
<trkpt lat="46.81640352731179" lon="6.570001143841377"><ele></ele><time>2014-6-22T14:42:17Z</time></trkpt>
<trkpt lat="46.81561693273529" lon="6.570668971720729"><ele></ele><time>2014-6-22T14:42:20Z</time></trkpt>
<trkpt lat="46.81524112850783" lon="6.570937079080421"><ele></ele><time>2014-6-22T14:42:23Z</time></trkpt>
<trkpt lat="46.81477458245749" lon="6.571101809854033"><ele></ele><time>2014-6-22T14:42:26Z</time></trkpt>
<trkpt lat="46.814435746721195" lon="6.571500352052186"><ele></ele><time>2014-6-22T14:42:29Z</time></trkpt>
<trkpt lat="46.81420544198244" lon="6.5719757700400985"><ele></ele><time>2014-6-22T14:42:32Z</time></trkpt>
<trkpt lat="46.813674053158294" lon="6.57308496688268"><ele></ele><time>2014-6-22T14:42:35Z</time></trkpt>
<trkpt lat="46.81303037139225" lon="6.573619397969636"><ele></ele><time>2014-6-22T14:42:38Z</time></trkpt>
<trkpt lat="46.81210003431218" lon="6.5743156347313265"><ele></ele><time>2014-6-22T14:42:41Z</time></trkpt>
<trkpt lat="46.81131301982552" lon="6.574930941717106"><ele></ele><time>2014-6-22T14:42:44Z</time></trkpt>
<trkpt lat="46.809900298298835" lon="6.5760803142805"><ele></ele><time>2014-6-22T14:42:47Z</time></trkpt>
<trkpt lat="46.81018352279079" lon="6.57785773119441"><ele></ele><time>2014-6-22T14:42:50Z</time></trkpt>
<trkpt lat="46.810462992428036" lon="6.57913732995998"><ele></ele><time>2014-6-22T14:42:53Z</time></trkpt>
<trkpt lat="46.81061083436289" lon="6.579659082396049"><ele></ele><time>2014-6-22T14:42:56Z</time></trkpt>
<trkpt lat="46.81041667129328" lon="6.580160062459206"><ele></ele><time>2014-6-22T14:42:59Z</time></trkpt>
<trkpt lat="46.81029466120247" lon="6.580686098956706"><ele></ele><time>2014-6-22T14:43:2Z</time></trkpt>
<trkpt lat="46.81060714449053" lon="6.581572114730372"><ele></ele><time>2014-6-22T14:43:5Z</time></trkpt>
<trkpt lat="46.810957554948416" lon="6.582719592933456"><ele></ele><time>2014-6-22T14:43:8Z</time></trkpt>
<trkpt lat="46.811087781285686" lon="6.5832940490765175"><ele></ele><time>2014-6-22T14:43:11Z</time></trkpt>
<trkpt lat="46.81116364494422" lon="6.583816956572962"><ele></ele><time>2014-6-22T14:43:14Z</time></trkpt>
<trkpt lat="46.811097732600615" lon="6.584630364274119"><ele></ele><time>2014-6-22T14:43:17Z</time></trkpt>
<trkpt lat="46.81168983708877" lon="6.584411367343949"><ele></ele><time>2014-6-22T14:43:20Z</time></trkpt>
<trkpt lat="46.811947737519105" lon="6.585219671335776"><ele></ele><time>2014-6-22T14:43:23Z</time></trkpt>
<trkpt lat="46.81239525566195" lon="6.587335291265603"><ele></ele><time>2014-6-22T14:43:26Z</time></trkpt>
<trkpt lat="46.81247071237549" lon="6.587805811237297"><ele></ele><time>2014-6-22T14:43:29Z</time></trkpt>
<trkpt lat="46.80988599967387" lon="6.5886326236140995"><ele></ele><time>2014-6-22T14:43:32Z</time></trkpt>
<trkpt lat="46.81043228948111" lon="6.589515006202484"><ele></ele><time>2014-6-22T14:43:35Z</time></trkpt>
<trkpt lat="46.81075940136239" lon="6.589955357135744"><ele></ele><time>2014-6-22T14:43:38Z</time></trkpt>
<trkpt lat="46.81108999629257" lon="6.59086735445374"><ele></ele><time>2014-6-22T14:43:41Z</time></trkpt>
<trkpt lat="46.8111105017004" lon="6.591207702192956"><ele></ele><time>2014-6-22T14:43:44Z</time></trkpt>
<trkpt lat="46.81190164596907" lon="6.593580022252676"><ele></ele><time>2014-6-22T14:43:47Z</time></trkpt>
<trkpt lat="46.812387298172325" lon="6.596009583944532"><ele></ele><time>2014-6-22T14:43:50Z</time></trkpt>
<trkpt lat="46.812852414886294" lon="6.598098827778752"><ele></ele><time>2014-6-22T14:43:53Z</time></trkpt>
<trkpt lat="46.813223906245895" lon="6.599691638739247"><ele></ele><time>2014-6-22T14:43:56Z</time></trkpt>
<trkpt lat="46.81346447418954" lon="6.600605131493701"><ele></ele><time>2014-6-22T14:43:59Z</time></trkpt>
<trkpt lat="46.81374521745553" lon="6.602094554774545"><ele></ele><time>2014-6-22T14:44:2Z</time></trkpt>
<trkpt lat="46.81380224188593" lon="6.602512978034958"><ele></ele><time>2014-6-22T14:44:5Z</time></trkpt>
<trkpt lat="46.814185091822985" lon="6.60567807735757"><ele></ele><time>2014-6-22T14:44:8Z</time></trkpt>
<trkpt lat="46.814566528095476" lon="6.6086597933570905"><ele></ele><time>2014-6-22T14:44:11Z</time></trkpt>
<trkpt lat="46.81487536074443" lon="6.611564039495825"><ele></ele><time>2014-6-22T14:44:14Z</time></trkpt>
<trkpt lat="46.815573000152476" lon="6.611003012686603"><ele></ele><time>2014-6-22T14:44:17Z</time></trkpt>
<trkpt lat="46.815688492105856" lon="6.612049543989404"><ele></ele><time>2014-6-22T14:44:20Z</time></trkpt>
<trkpt lat="46.81578654994095" lon="6.6131749683552075"><ele></ele><time>2014-6-22T14:44:23Z</time></trkpt>
<trkpt lat="46.815955427102786" lon="6.614142071410687"><ele></ele><time>2014-6-22T14:44:26Z</time></trkpt>
<trkpt lat="46.81690493754651" lon="6.613577223680034"><ele></ele><time>2014-6-22T14:44:29Z</time></trkpt>
<trkpt lat="46.81760145570465" lon="6.612858968679807"><ele></ele><time>2014-6-22T14:44:32Z</time></trkpt>
<trkpt lat="46.81783362741067" lon="6.6126195462230895"><ele></ele><time>2014-6-22T14:44:35Z</time></trkpt>
<trkpt lat="46.81833243948264" lon="6.611930498140136"><ele></ele><time>2014-6-22T14:44:38Z</time></trkpt>
<trkpt lat="46.81892478444448" lon="6.611737977877291"><ele></ele><time>2014-6-22T14:44:41Z</time></trkpt>
<trkpt lat="46.81960726725858" lon="6.61157028389881"><ele></ele><time>2014-6-22T14:44:44Z</time></trkpt>
<trkpt lat="46.82005380370137" lon="6.6111178900744285"><ele></ele><time>2014-6-22T14:44:47Z</time></trkpt>
<trkpt lat="46.82051700497805" lon="6.6104817647386795"><ele></ele><time>2014-6-22T14:44:50Z</time></trkpt>
<trkpt lat="46.820816780037454" lon="6.60963845379768"><ele></ele><time>2014-6-22T14:44:53Z</time></trkpt>
<trkpt lat="46.82088741465447" lon="6.609453900682014"><ele></ele><time>2014-6-22T14:44:56Z</time></trkpt>
<trkpt lat="46.821245697603665" lon="6.609238724379654"><ele></ele><time>2014-6-22T14:44:59Z</time></trkpt>
<trkpt lat="46.82176456310636" lon="6.608837608052382"><ele></ele><time>2014-6-22T14:45:2Z</time></trkpt>
<trkpt lat="46.82226259379509" lon="6.608043643658222"><ele></ele><time>2014-6-22T14:45:5Z</time></trkpt>
<trkpt lat="46.82257977126095" lon="6.607121391423291"><ele></ele><time>2014-6-22T14:45:8Z</time></trkpt>
<trkpt lat="46.822809081990734" lon="6.6064888016552805"><ele></ele><time>2014-6-22T14:45:11Z</time></trkpt>
<trkpt lat="46.82314632838323" lon="6.605854543831695"><ele></ele><time>2014-6-22T14:45:14Z</time></trkpt>
<trkpt lat="46.82328701446455" lon="6.605406786467778"><ele></ele><time>2014-6-22T14:45:17Z</time></trkpt>
<trkpt lat="46.8232621729545" lon="6.604463566783121"><ele></ele><time>2014-6-22T14:45:20Z</time></trkpt>
<trkpt lat="46.82323884866338" lon="6.60373001381"><ele></ele><time>2014-6-22T14:45:23Z</time></trkpt>
<trkpt lat="46.82348536746933" lon="6.6029922904466645"><ele></ele><time>2014-6-22T14:45:26Z</time></trkpt>
<trkpt lat="46.823801358224515" lon="6.601912736568516"><ele></ele><time>2014-6-22T14:45:29Z</time></trkpt>
<trkpt lat="46.82404690931149" lon="6.6010439541170705"><ele></ele><time>2014-6-22T14:45:32Z</time></trkpt>
<trkpt lat="46.82454565136686" lon="6.600354719520226"><ele></ele><time>2014-6-22T14:45:35Z</time></trkpt>
<trkpt lat="46.82497568501215" lon="6.600112142969149"><ele></ele><time>2014-6-22T14:45:38Z</time></trkpt>
<trkpt lat="46.8252271599374" lon="6.600055818045943"><ele></ele><time>2014-6-22T14:45:41Z</time></trkpt>
<trkpt lat="46.82551614594487" lon="6.6002086090462075"><ele></ele><time>2014-6-22T14:45:44Z</time></trkpt>
<trkpt lat="46.82594885909629" lon="6.600332960469235"><ele></ele><time>2014-6-22T14:45:47Z</time></trkpt>
<trkpt lat="46.826109427876524" lon="6.600146982430903"><ele></ele><time>2014-6-22T14:45:50Z</time></trkpt>
<trkpt lat="46.82622884501593" lon="6.599253900328176"><ele></ele><time>2014-6-22T14:45:53Z</time></trkpt>
<trkpt lat="46.82625696306886" lon="6.598178744649679"><ele></ele><time>2014-6-22T14:45:56Z</time></trkpt>
<trkpt lat="46.8262351346378" lon="6.597654830959976"><ele></ele><time>2014-6-22T14:45:59Z</time></trkpt>
<trkpt lat="46.82630152374069" lon="6.5968936302166865"><ele></ele><time>2014-6-22T14:46:2Z</time></trkpt>
<trkpt lat="46.826420145985345" lon="6.5958956987095885"><ele></ele><time>2014-6-22T14:46:5Z</time></trkpt>
<trkpt lat="46.8266853742546" lon="6.59526245478234"><ele></ele><time>2014-6-22T14:46:8Z</time></trkpt>
<trkpt lat="46.82687806164044" lon="6.594551698225118"><ele></ele><time>2014-6-22T14:46:11Z</time></trkpt>
<trkpt lat="46.82680186149497" lon="6.593976203334406"><ele></ele><time>2014-6-22T14:46:14Z</time></trkpt>
<trkpt lat="46.826833983307466" lon="6.5934514422331025"><ele></ele><time>2014-6-22T14:46:17Z</time></trkpt>
<trkpt lat="46.82697577904873" lon="6.593160881925612"><ele></ele><time>2014-6-22T14:46:20Z</time></trkpt>
<trkpt lat="46.82756442258135" lon="6.5924701289373075"><ele></ele><time>2014-6-22T14:46:23Z</time></trkpt>
<trkpt lat="46.82781473442819" lon="6.592256503161176"><ele></ele><time>2014-6-22T14:46:26Z</time></trkpt>
<trkpt lat="46.82792672974717" lon="6.592805233000928"><ele></ele><time>2014-6-22T14:46:29Z</time></trkpt>
<trkpt lat="46.82796695612694" lon="6.593381300848233"><ele></ele><time>2014-6-22T14:46:32Z</time></trkpt>
<trkpt lat="46.827881829338196" lon="6.594037968666055"><ele></ele><time>2014-6-22T14:46:35Z</time></trkpt>
<trkpt lat="46.82781372519573" lon="6.594563301425869"><ele></ele><time>2014-6-22T14:46:38Z</time></trkpt>
<trkpt lat="46.82799805389083" lon="6.5951633341860925"><ele></ele><time>2014-6-22T14:46:41Z</time></trkpt>
<trkpt lat="46.8283794977737" lon="6.59565544266417"><ele></ele><time>2014-6-22T14:46:44Z</time></trkpt>
<trkpt lat="46.82850600386179" lon="6.595732111154922"><ele></ele><time>2014-6-22T14:46:47Z</time></trkpt>
<trkpt lat="46.82859229573033" lon="6.595232703239274"><ele></ele><time>2014-6-22T14:46:50Z</time></trkpt>
<trkpt lat="46.82856737043688" lon="6.594289395383995"><ele></ele><time>2014-6-22T14:46:53Z</time></trkpt>
<trkpt lat="46.82859987942597" lon="6.593817038889862"><ele></ele><time>2014-6-22T14:46:56Z</time></trkpt>
<trkpt lat="46.82855965524095" lon="6.593240963954029"><ele></ele><time>2014-6-22T14:46:59Z</time></trkpt>
<trkpt lat="46.82954562016134" lon="6.592753686759853"><ele></ele><time>2014-6-22T14:47:2Z</time></trkpt>
<trkpt lat="46.83221759905743" lon="6.59155838610111"><ele></ele><time>2014-6-22T14:47:5Z</time></trkpt>
<trkpt lat="46.83214196444091" lon="6.591061475970023"><ele></ele><time>2014-6-22T14:47:8Z</time></trkpt>
<trkpt lat="46.83210366241659" lon="6.590747490184628"><ele></ele><time>2014-6-22T14:47:11Z</time></trkpt>
<trkpt lat="46.83228259253196" lon="6.590613605263205"><ele></ele><time>2014-6-22T14:47:14Z</time></trkpt>
<trkpt lat="46.83278843629895" lon="6.590894043454942"><ele></ele><time>2014-6-22T14:47:17Z</time></trkpt>
<trkpt lat="46.83336913998095" lon="6.591566555365087"><ele></ele><time>2014-6-22T14:47:20Z</time></trkpt>
<trkpt lat="46.833732995801" lon="6.592111395812645"><ele></ele><time>2014-6-22T14:47:23Z</time></trkpt>
<trkpt lat="46.83404230017063" lon="6.5925784479939145"><ele></ele><time>2014-6-22T14:47:26Z</time></trkpt>
<trkpt lat="46.834314464639085" lon="6.592888786942964"><ele></ele><time>2014-6-22T14:47:29Z</time></trkpt>
<trkpt lat="46.834913532149535" lon="6.593613485861702"><ele></ele><time>2014-6-22T14:47:32Z</time></trkpt>
<trkpt lat="46.835476615419154" lon="6.59433876292783"><ele></ele><time>2014-6-22T14:47:35Z</time></trkpt>
<trkpt lat="46.836096551543505" lon="6.5954564296192295"><ele></ele><time>2014-6-22T14:47:38Z</time></trkpt>
<trkpt lat="46.83651589691854" lon="6.596210199783959"><ele></ele><time>2014-6-22T14:47:41Z</time></trkpt>
<trkpt lat="46.83669733337797" lon="6.596417113791779"><ele></ele><time>2014-6-22T14:47:44Z</time></trkpt>
<trkpt lat="46.836641440925554" lon="6.596155807546578"><ele></ele><time>2014-6-22T14:47:47Z</time></trkpt>
<trkpt lat="46.8367315822966" lon="6.5961806202256925"><ele></ele><time>2014-6-22T14:47:50Z</time></trkpt>
<trkpt lat="46.837023264580786" lon="6.596700431821449"><ele></ele><time>2014-6-22T14:47:53Z</time></trkpt>
<trkpt lat="46.83738844025496" lon="6.597428849497987"><ele></ele><time>2014-6-22T14:47:56Z</time></trkpt>
<trkpt lat="46.83797044830901" lon="6.598284996857016"><ele></ele><time>2014-6-22T14:47:59Z</time></trkpt>
<trkpt lat="46.8383365721824" lon="6.599144515855183"><ele></ele><time>2014-6-22T14:48:2Z</time></trkpt>
<trkpt lat="46.83873962640114" lon="6.600134567025653"><ele></ele><time>2014-6-22T14:48:5Z</time></trkpt>
<trkpt lat="46.83899531104264" lon="6.6006549772397225"><ele></ele><time>2014-6-22T14:48:8Z</time></trkpt>
<trkpt lat="46.83905195813935" lon="6.601021163205635"><ele></ele><time>2014-6-22T14:48:11Z</time></trkpt>
<trkpt lat="46.83921921826909" lon="6.601752701761037"><ele></ele><time>2014-6-22T14:48:14Z</time></trkpt>
<trkpt lat="46.83942188067933" lon="6.602405039927733"><ele></ele><time>2014-6-22T14:48:17Z</time></trkpt>
<trkpt lat="46.83955505937337" lon="6.603399305636296"><ele></ele><time>2014-6-22T14:48:20Z</time></trkpt>
<trkpt lat="46.83977513061549" lon="6.60397272743691"><ele></ele><time>2014-6-22T14:48:23Z</time></trkpt>
<trkpt lat="46.83990391684276" lon="6.6043640277141655"><ele></ele><time>2014-6-22T14:48:26Z</time></trkpt>
<trkpt lat="46.83996036170319" lon="6.6047040073802386"><ele></ele><time>2014-6-22T14:48:29Z</time></trkpt>
<trkpt lat="46.84005164330055" lon="6.604886134352148"><ele></ele><time>2014-6-22T14:48:32Z</time></trkpt>
<trkpt lat="46.84008495767257" lon="6.6045185493257215"><ele></ele><time>2014-6-22T14:48:35Z</time></trkpt>
<trkpt lat="46.840119413773216" lon="6.604308262495196"><ele></ele><time>2014-6-22T14:48:38Z</time></trkpt>
<trkpt lat="46.84006182436428" lon="6.6038109837604475"><ele></ele><time>2014-6-22T14:48:41Z</time></trkpt>
<trkpt lat="46.840077526784825" lon="6.603496108837984"><ele></ele><time>2014-6-22T14:48:44Z</time></trkpt>
<trkpt lat="46.84009322833984" lon="6.603181233731638"><ele></ele><time>2014-6-22T14:48:47Z</time></trkpt>
<trkpt lat="46.84019906890861" lon="6.602891183943586"><ele></ele><time>2014-6-22T14:48:50Z</time></trkpt>
<trkpt lat="46.84021476880062" lon="6.602576307950121"><ele></ele><time>2014-6-22T14:48:53Z</time></trkpt>
<trkpt lat="46.840213623514146" lon="6.6024190090565575"><ele></ele><time>2014-6-22T14:48:56Z</time></trkpt>
<trkpt lat="46.84021247801167" lon="6.602261710169575"><ele></ele><time>2014-6-22T14:48:59Z</time></trkpt>
<trkpt lat="46.84037419541058" lon="6.602232988032715"><ele></ele><time>2014-6-22T14:49:2Z</time></trkpt>
<trkpt lat="46.84048442517241" lon="6.602545916940353"><ele></ele><time>2014-6-22T14:49:5Z</time></trkpt>
<trkpt lat="46.840487096764804" lon="6.6029129495525885"><ele></ele><time>2014-6-22T14:49:8Z</time></trkpt>
<trkpt lat="46.840616077294484" lon="6.603330469149907"><ele></ele><time>2014-6-22T14:49:11Z</time></trkpt>
<trkpt lat="46.84099577006427" lon="6.603586798881949"><ele></ele><time>2014-6-22T14:49:14Z</time></trkpt>
<trkpt lat="46.841319777393096" lon="6.603608012627659"><ele></ele><time>2014-6-22T14:49:17Z</time></trkpt>
<trkpt lat="46.841446659168156" lon="6.603737152381736"><ele></ele><time>2014-6-22T14:49:20Z</time></trkpt>
<trkpt lat="46.841683004046814" lon="6.6040743631454415"><ele></ele><time>2014-6-22T14:49:23Z</time></trkpt>
<trkpt lat="46.84193790904517" lon="6.60448995116138"><ele></ele><time>2014-6-22T14:49:26Z</time></trkpt>
<trkpt lat="46.84213789135122" lon="6.604775288548138"><ele></ele><time>2014-6-22T14:49:29Z</time></trkpt>
<trkpt lat="46.84224735294376" lon="6.604983362974663"><ele></ele><time>2014-6-22T14:49:32Z</time></trkpt>
<trkpt lat="46.84224944601439" lon="6.605271755263954"><ele></ele><time>2014-6-22T14:49:35Z</time></trkpt>
<trkpt lat="46.84216215977605" lon="6.605640186422889"><ele></ele><time>2014-6-22T14:49:38Z</time></trkpt>
<trkpt lat="46.84239697816288" lon="6.605767669560161"><ele></ele><time>2014-6-22T14:49:41Z</time></trkpt>
<trkpt lat="46.842558886533816" lon="6.605765174418033"><ele></ele><time>2014-6-22T14:49:44Z</time></trkpt>
<trkpt lat="46.84286623433014" lon="6.605970203600219"><ele></ele><time>2014-6-22T14:49:47Z</time></trkpt>
<trkpt lat="46.843156732057196" lon="6.606332819784656"><ele></ele><time>2014-6-22T14:49:50Z</time></trkpt>
<trkpt lat="46.8435212766652" lon="6.606982731306356"><ele></ele><time>2014-6-22T14:49:53Z</time></trkpt>
<trkpt lat="46.84375875048587" lon="6.607477278624684"><ele></ele><time>2014-6-22T14:49:56Z</time></trkpt>
<trkpt lat="46.84397823234367" lon="6.607972106810325"><ele></ele><time>2014-6-22T14:49:59Z</time></trkpt>
<trkpt lat="46.844254334145724" lon="6.608833168543618"><ele></ele><time>2014-6-22T14:50:2Z</time></trkpt>
<trkpt lat="46.84456886865043" lon="6.610034529352344"><ele></ele><time>2014-6-22T14:50:5Z</time></trkpt>
<trkpt lat="46.84462435118243" lon="6.6102434511085955"><ele></ele><time>2014-6-22T14:50:8Z</time></trkpt>
<trkpt lat="46.84509643456088" lon="6.610839315769231"><ele></ele><time>2014-6-22T14:50:11Z</time></trkpt>
<trkpt lat="46.845333325083466" lon="6.611255237524491"><ele></ele><time>2014-6-22T14:50:14Z</time></trkpt>
<trkpt lat="46.84546378518703" lon="6.611882567165184"><ele></ele><time>2014-6-22T14:50:17Z</time></trkpt>
<trkpt lat="46.8457355196301" lon="6.6121406309830215"><ele></ele><time>2014-6-22T14:50:20Z</time></trkpt>
<trkpt lat="46.84609493880242" lon="6.612082689670811"><ele></ele><time>2014-6-22T14:50:23Z</time></trkpt>
<trkpt lat="46.846382209924776" lon="6.611999628743844"><ele></ele><time>2014-6-22T14:50:26Z</time></trkpt>
<trkpt lat="46.84650945950162" lon="6.612181239545447"><ele></ele><time>2014-6-22T14:50:29Z</time></trkpt>
<trkpt lat="46.84658443667522" lon="6.6125996529084485"><ele></ele><time>2014-6-22T14:50:32Z</time></trkpt>
<trkpt lat="46.84671413564711" lon="6.6131221216421805"><ele></ele><time>2014-6-22T14:50:35Z</time></trkpt>
<trkpt lat="46.84704435638229" lon="6.614008649757411"><ele></ele><time>2014-6-22T14:50:38Z</time></trkpt>
<trkpt lat="46.8474849532885" lon="6.615234404246639"><ele></ele><time>2014-6-22T14:50:41Z</time></trkpt>
<trkpt lat="46.84805015193531" lon="6.616274720512382"><ele></ele><time>2014-6-22T14:50:44Z</time></trkpt>
<trkpt lat="46.848288898664094" lon="6.616952893546523"><ele></ele><time>2014-6-22T14:50:47Z</time></trkpt>
<trkpt lat="46.848489037272515" lon="6.617264531368362"><ele></ele><time>2014-6-22T14:50:50Z</time></trkpt>
<trkpt lat="46.8485793614297" lon="6.617315605425046"><ele></ele><time>2014-6-22T14:50:53Z</time></trkpt>
<trkpt lat="46.848483784882596" lon="6.616530355806587"><ele></ele><time>2014-6-22T14:50:56Z</time></trkpt>
<trkpt lat="46.84833385775292" lon="6.615693489822528"><ele></ele><time>2014-6-22T14:50:59Z</time></trkpt>
<trkpt lat="46.8482388341802" lon="6.61498690793929"><ele></ele><time>2014-6-22T14:51:2Z</time></trkpt>
<trkpt lat="46.84809002494891" lon="6.614307372170254"><ele></ele><time>2014-6-22T14:51:5Z</time></trkpt>
<trkpt lat="46.84794064665653" lon="6.613549179314937"><ele></ele><time>2014-6-22T14:51:8Z</time></trkpt>
<trkpt lat="46.84779164038225" lon="6.612843431068596"><ele></ele><time>2014-6-22T14:51:11Z</time></trkpt>
<trkpt lat="46.84766156287936" lon="6.612268512278466"><ele></ele><time>2014-6-22T14:51:14Z</time></trkpt>
<trkpt lat="46.847657411243006" lon="6.611691669268535"><ele></ele><time>2014-6-22T14:51:17Z</time></trkpt>
<trkpt lat="46.84772653819985" lon="6.611297265597838"><ele></ele><time>2014-6-22T14:51:20Z</time></trkpt>
<trkpt lat="46.847706659409624" lon="6.611035339440551"><ele></ele><time>2014-6-22T14:51:23Z</time></trkpt>
<trkpt lat="46.84741693272291" lon="6.610777547338933"><ele></ele><time>2014-6-22T14:51:26Z</time></trkpt>
<trkpt lat="46.84716413023644" lon="6.610650306115526"><ele></ele><time>2014-6-22T14:51:29Z</time></trkpt>
<trkpt lat="46.84703536559786" lon="6.610258938096345"><ele></ele><time>2014-6-22T14:51:32Z</time></trkpt>
<trkpt lat="46.84681324406169" lon="6.609396996475912"><ele></ele><time>2014-6-22T14:51:35Z</time></trkpt>
<trkpt lat="46.846647548469164" lon="6.608875088180962"><ele></ele><time>2014-6-22T14:51:38Z</time></trkpt>
<trkpt lat="46.84624532873103" lon="6.607989704094128"><ele></ele><time>2014-6-22T14:51:41Z</time></trkpt>
<trkpt lat="46.845861661398445" lon="6.607182714150999"><ele></ele><time>2014-6-22T14:51:44Z</time></trkpt>
<trkpt lat="46.84556679736175" lon="6.606217035850839"><ele></ele><time>2014-6-22T14:51:47Z</time></trkpt>
<trkpt lat="46.845327416424475" lon="6.605460287677227"><ele></ele><time>2014-6-22T14:51:50Z</time></trkpt>
<trkpt lat="46.84521548197563" lon="6.60491135436347"><ele></ele><time>2014-6-22T14:51:53Z</time></trkpt>
<trkpt lat="46.845065469917714" lon="6.604074571431407"><ele></ele><time>2014-6-22T14:51:56Z</time></trkpt>
<trkpt lat="46.84462551664072" lon="6.602953837699396"><ele></ele><time>2014-6-22T14:51:59Z</time></trkpt>
<trkpt lat="46.844423239324385" lon="6.602353871526495"><ele></ele><time>2014-6-22T14:52:2Z</time></trkpt>
<trkpt lat="46.84431071683319" lon="6.601726298451048"><ele></ele><time>2014-6-22T14:52:5Z</time></trkpt>
<trkpt lat="46.84498512200102" lon="6.602922055107093"><ele></ele><time>2014-6-22T14:52:8Z</time></trkpt>
<trkpt lat="46.84569587525604" lon="6.604169724391935"><ele></ele><time>2014-6-22T14:52:11Z</time></trkpt>
<trkpt lat="46.846169703175754" lon="6.60500152219894"><ele></ele><time>2014-6-22T14:52:14Z</time></trkpt>
<trkpt lat="46.84649732471131" lon="6.605520917911755"><ele></ele><time>2014-6-22T14:52:17Z</time></trkpt>
<trkpt lat="46.84700693239262" lon="6.606325966040439"><ele></ele><time>2014-6-22T14:52:20Z</time></trkpt>
<trkpt lat="46.84744438531642" lon="6.607105916608032"><ele></ele><time>2014-6-22T14:52:23Z</time></trkpt>
<trkpt lat="46.847826535790254" lon="6.60770316807946"><ele></ele><time>2014-6-22T14:52:26Z</time></trkpt>
<trkpt lat="46.848189935060844" lon="6.608195822912587"><ele></ele><time>2014-6-22T14:52:29Z</time></trkpt>
<trkpt lat="46.848571322009064" lon="6.6086882080982985"><ele></ele><time>2014-6-22T14:52:32Z</time></trkpt>
<trkpt lat="46.84875387205037" lon="6.609052534376218"><ele></ele><time>2014-6-22T14:52:35Z</time></trkpt>
<trkpt lat="46.84886370443847" lon="6.609313084469462"><ele></ele><time>2014-6-22T14:52:38Z</time></trkpt>
<trkpt lat="46.84899020106876" lon="6.609389814192287"><ele></ele><time>2014-6-22T14:52:41Z</time></trkpt>
<trkpt lat="46.84900724428921" lon="6.6092584342124825"><ele></ele><time>2014-6-22T14:52:44Z</time></trkpt>
<trkpt lat="46.848785683845996" lon="6.608475127183946"><ele></ele><time>2014-6-22T14:52:47Z</time></trkpt>
<trkpt lat="46.8484010714909" lon="6.607536993316221"><ele></ele><time>2014-6-22T14:52:50Z</time></trkpt>
<trkpt lat="46.84821756749262" lon="6.607041572595849"><ele></ele><time>2014-6-22T14:52:53Z</time></trkpt>
<trkpt lat="46.84796267194838" lon="6.606625924065792"><ele></ele><time>2014-6-22T14:52:56Z</time></trkpt>
<trkpt lat="46.84765076419821" lon="6.605791589006261"><ele></ele><time>2014-6-22T14:52:59Z</time></trkpt>
<trkpt lat="46.84737482997249" lon="6.604956708538677"><ele></ele><time>2014-6-22T14:53:2Z</time></trkpt>
<trkpt lat="46.8470255967244" lon="6.603939409245592"><ele></ele><time>2014-6-22T14:53:5Z</time></trkpt>
<trkpt lat="46.846695870309475" lon="6.603131602023602"><ele></ele><time>2014-6-22T14:53:8Z</time></trkpt>
<trkpt lat="46.846365183506805" lon="6.602192707314792"><ele></ele><time>2014-6-22T14:53:11Z</time></trkpt>
<trkpt lat="46.8461810831337" lon="6.601618665356602"><ele></ele><time>2014-6-22T14:53:14Z</time></trkpt>
<trkpt lat="46.84598013725259" lon="6.601202221845739"><ele></ele><time>2014-6-22T14:53:17Z</time></trkpt>
<trkpt lat="46.84570455225154" lon="6.600419829042527"><ele></ele><time>2014-6-22T14:53:20Z</time></trkpt>
<trkpt lat="46.84562876473153" lon="6.599896563009478"><ele></ele><time>2014-6-22T14:53:23Z</time></trkpt>
<trkpt lat="46.84526360511663" lon="6.599168017198568"><ele></ele><time>2014-6-22T14:53:26Z</time></trkpt>
<trkpt lat="46.84489920804306" lon="6.598544356250568"><ele></ele><time>2014-6-22T14:53:29Z</time></trkpt>
<trkpt lat="46.844461696698936" lon="6.597764512007178"><ele></ele><time>2014-6-22T14:53:32Z</time></trkpt>
<trkpt lat="46.84389825146189" lon="6.596986641662223"><ele></ele><time>2014-6-22T14:53:35Z</time></trkpt>
<trkpt lat="46.843497670576596" lon="6.5963373539712835"><ele></ele><time>2014-6-22T14:53:38Z</time></trkpt>
<trkpt lat="46.842988184961925" lon="6.595558670520926"><ele></ele><time>2014-6-22T14:53:41Z</time></trkpt>
<trkpt lat="46.84264040950055" lon="6.59475125600159"><ele></ele><time>2014-6-22T14:53:44Z</time></trkpt>
<trkpt lat="46.84232937922185" lon="6.5940481594611375"><ele></ele><time>2014-6-22T14:53:47Z</time></trkpt>
<trkpt lat="46.84190963392757" lon="6.59324189022345"><ele></ele><time>2014-6-22T14:53:50Z</time></trkpt>
<trkpt lat="46.84139974080672" lon="6.592410824933726"><ele></ele><time>2014-6-22T14:53:53Z</time></trkpt>
<trkpt lat="46.841090242727915" lon="6.591917493054008"><ele></ele><time>2014-6-22T14:53:56Z</time></trkpt>
<trkpt lat="46.84090647760743" lon="6.5913959759349785"><ele></ele><time>2014-6-22T14:53:59Z</time></trkpt>
<trkpt lat="46.84077648592359" lon="6.590847399054131"><ele></ele><time>2014-6-22T14:54:2Z</time></trkpt>
<trkpt lat="46.84068305217319" lon="6.590376910038399"><ele></ele><time>2014-6-22T14:54:5Z</time></trkpt>
<trkpt lat="46.840484196184974" lon="6.5902489331979055"><ele></ele><time>2014-6-22T14:54:8Z</time></trkpt>
<trkpt lat="46.84028514633239" lon="6.590094740828238"><ele></ele><time>2014-6-22T14:54:11Z</time></trkpt>
<trkpt lat="46.840121300770534" lon="6.589835119005029"><ele></ele><time>2014-6-22T14:54:14Z</time></trkpt>
<trkpt lat="46.84004624040087" lon="6.58941678747213"><ele></ele><time>2014-6-22T14:54:17Z</time></trkpt>
<trkpt lat="46.84000463594457" lon="6.588657079120593"><ele></ele><time>2014-6-22T14:54:20Z</time></trkpt>
<trkpt lat="46.83992801792479" lon="6.588029019782497"><ele></ele><time>2014-6-22T14:54:23Z</time></trkpt>
<trkpt lat="46.83981599988189" lon="6.587480177648093"><ele></ele><time>2014-6-22T14:54:26Z</time></trkpt>
<trkpt lat="46.839504730388995" lon="6.586750943827182"><ele></ele><time>2014-6-22T14:54:29Z</time></trkpt>
<trkpt lat="46.8393754948326" lon="6.586307256482171"><ele></ele><time>2014-6-22T14:54:32Z</time></trkpt>
<trkpt lat="46.83915786597755" lon="6.586074717876247"><ele></ele><time>2014-6-22T14:54:35Z</time></trkpt>
<trkpt lat="46.83906441260656" lon="6.585604251258562"><ele></ele><time>2014-6-22T14:54:38Z</time></trkpt>
<trkpt lat="46.83895257780422" lon="6.585081638762805"><ele></ele><time>2014-6-22T14:54:41Z</time></trkpt>
<trkpt lat="46.83882392065188" lon="6.584716607196288"><ele></ele><time>2014-6-22T14:54:44Z</time></trkpt>
<trkpt lat="46.83874923165859" lon="6.58435072426872"><ele></ele><time>2014-6-22T14:54:47Z</time></trkpt>
<trkpt lat="46.83876731894967" lon="6.584363547758232"><ele></ele><time>2014-6-22T14:54:50Z</time></trkpt>
<trkpt lat="46.83875763580987" lon="6.584394421380081"><ele></ele><time>2014-6-22T14:54:53Z</time></trkpt>
<trkpt lat="46.83859115180862" lon="6.5837809095763244"><ele></ele><time>2014-6-22T14:54:56Z</time></trkpt>
<trkpt lat="46.83847931617752" lon="6.583258303182953"><ele></ele><time>2014-6-22T14:54:59Z</time></trkpt>
<trkpt lat="46.838247813519835" lon="6.582370531653418"><ele></ele><time>2014-6-22T14:55:2Z</time></trkpt>
<trkpt lat="46.838018354269266" lon="6.5817580283812855"><ele></ele><time>2014-6-22T14:55:5Z</time></trkpt>
<trkpt lat="46.83771566236278" lon="6.580976271495029"><ele></ele><time>2014-6-22T14:55:8Z</time></trkpt>
<trkpt lat="46.8375150378752" lon="6.580612395415866"><ele></ele><time>2014-6-22T14:55:11Z</time></trkpt>
<trkpt lat="46.83734775101803" lon="6.579894049547667"><ele></ele><time>2014-6-22T14:55:14Z</time></trkpt>
<trkpt lat="46.83725241896198" lon="6.579174565862171"><ele></ele><time>2014-6-22T14:55:17Z</time></trkpt>
<trkpt lat="46.83715443598686" lon="6.578101183996001"><ele></ele><time>2014-6-22T14:55:20Z</time></trkpt>
<trkpt lat="46.836969339796504" lon="6.577409351653434"><ele></ele><time>2014-6-22T14:55:23Z</time></trkpt>
<trkpt lat="46.83676654417923" lon="6.576757132454643"><ele></ele><time>2014-6-22T14:55:26Z</time></trkpt>
<trkpt lat="46.836553767227855" lon="6.575973988614368"><ele></ele><time>2014-6-22T14:55:29Z</time></trkpt>
<trkpt lat="46.83643776446027" lon="6.574900913445472"><ele></ele><time>2014-6-22T14:55:32Z</time></trkpt>
<trkpt lat="46.8363146284196" lon="6.574077023777353"><ele></ele><time>2014-6-22T14:55:35Z</time></trkpt>
<trkpt lat="46.83608413908208" lon="6.573333506086199"><ele></ele><time>2014-6-22T14:55:38Z</time></trkpt>
<trkpt lat="46.83567147709724" lon="6.572291409863151"><ele></ele><time>2014-6-22T14:55:41Z</time></trkpt>
<trkpt lat="46.8352578173595" lon="6.571118259982224"><ele></ele><time>2014-6-22T14:55:44Z</time></trkpt>
<trkpt lat="46.835118444765094" lon="6.570530610135574"><ele></ele><time>2014-6-22T14:55:47Z</time></trkpt>
<trkpt lat="46.83482090839698" lon="6.5692507535757"><ele></ele><time>2014-6-22T14:55:50Z</time></trkpt>
<trkpt lat="46.834769790085126" lon="6.568438851765143"><ele></ele><time>2014-6-22T14:55:53Z</time></trkpt>
<trkpt lat="46.83469237591119" lon="6.567719133318942"><ele></ele><time>2014-6-22T14:55:56Z</time></trkpt>
<trkpt lat="46.83446174598808" lon="6.5669625583958755"><ele></ele><time>2014-6-22T14:55:59Z</time></trkpt>
<trkpt lat="46.83414374583175" lon="6.566548213037983"><ele></ele><time>2014-6-22T14:56:2Z</time></trkpt>
<trkpt lat="46.83369251030098" lon="6.5663588585311405"><ele></ele><time>2014-6-22T14:56:5Z</time></trkpt>
<trkpt lat="46.83335870512467" lon="6.56623315537698"><ele></ele><time>2014-6-22T14:56:8Z</time></trkpt>
<trkpt lat="46.832925955886914" lon="6.5661090482629865"><ele></ele><time>2014-6-22T14:56:11Z</time></trkpt>
<trkpt lat="46.83265183301333" lon="6.565549825149144"><ele></ele><time>2014-6-22T14:56:14Z</time></trkpt>
<trkpt lat="46.832417006013685" lon="6.564242825272213"><ele></ele><time>2014-6-22T14:56:17Z</time></trkpt>
<trkpt lat="46.832090019846085" lon="6.562648955702408"><ele></ele><time>2014-6-22T14:56:20Z</time></trkpt>
<trkpt lat="46.83198758393613" lon="6.5610121421755645"><ele></ele><time>2014-6-22T14:56:23Z</time></trkpt>
<trkpt lat="46.83207052996869" lon="6.560093252434826"><ele></ele><time>2014-6-22T14:56:26Z</time></trkpt>
<trkpt lat="46.832198944077305" lon="6.559239160302636"><ele></ele><time>2014-6-22T14:56:29Z</time></trkpt>
<trkpt lat="46.83222362394637" lon="6.558937279374301"><ele></ele><time>2014-6-22T14:56:32Z</time></trkpt>
<trkpt lat="46.832102479520714" lon="6.5583887200736815"><ele></ele><time>2014-6-22T14:56:35Z</time></trkpt>
<trkpt lat="46.83208218269174" lon="6.558087570738262"><ele></ele><time>2014-6-22T14:56:38Z</time></trkpt>
<trkpt lat="46.83217213160853" lon="6.558086107850155"><ele></ele><time>2014-6-22T14:56:41Z</time></trkpt>
<trkpt lat="46.832264387576835" lon="6.558386087774944"><ele></ele><time>2014-6-22T14:56:44Z</time></trkpt>
<trkpt lat="46.83264217302965" lon="6.558379945684483"><ele></ele><time>2014-6-22T14:56:47Z</time></trkpt>
<trkpt lat="46.833314282118096" lon="6.558041315827131"><ele></ele><time>2014-6-22T14:56:50Z</time></trkpt>
<trkpt lat="46.833922622943575" lon="6.5575988491416695"><ele></ele><time>2014-6-22T14:56:53Z</time></trkpt>
<trkpt lat="46.834459806305844" lon="6.557262398008418"><ele></ele><time>2014-6-22T14:56:56Z</time></trkpt>
<trkpt lat="46.83456754412585" lon="6.557234427280822"><ele></ele><time>2014-6-22T14:56:59Z</time></trkpt>
<trkpt lat="46.835153215984036" lon="6.55735597785519"><ele></ele><time>2014-6-22T14:57:2Z</time></trkpt>
<trkpt lat="46.835693110045405" lon="6.557373406738788"><ele></ele><time>2014-6-22T14:57:5Z</time></trkpt>
<trkpt lat="46.83630476235562" lon="6.557363450269045"><ele></ele><time>2014-6-22T14:57:8Z</time></trkpt>
<trkpt lat="46.836260089134285" lon="6.557403503908208"><ele></ele><time>2014-6-22T14:57:11Z</time></trkpt>
<trkpt lat="46.83662108931529" lon="6.557554934537075"><ele></ele><time>2014-6-22T14:57:14Z</time></trkpt>
<trkpt lat="46.837026862976124" lon="6.557679420637757"><ele></ele><time>2014-6-22T14:57:17Z</time></trkpt>
<trkpt lat="46.83754187961781" lon="6.557972549807706"><ele></ele><time>2014-6-22T14:57:20Z</time></trkpt>
<trkpt lat="46.83829096311705" lon="6.558288096782292"><ele></ele><time>2014-6-22T14:57:23Z</time></trkpt>
<trkpt lat="46.83912099965332" lon="6.5586023365463975"><ele></ele><time>2014-6-22T14:57:26Z</time></trkpt>
<trkpt lat="46.84004967829098" lon="6.5588756538055115"><ele></ele><time>2014-6-22T14:57:29Z</time></trkpt>
<trkpt lat="46.84060916510373" lon="6.559102539006715"><ele></ele><time>2014-6-22T14:57:32Z</time></trkpt>
<trkpt lat="46.84151115826257" lon="6.559415636118563"><ele></ele><time>2014-6-22T14:57:35Z</time></trkpt>
<trkpt lat="46.84207903789695" lon="6.559563735441083"><ele></ele><time>2014-6-22T14:57:38Z</time></trkpt>
<trkpt lat="46.842304911458754" lon="6.559691170252642"><ele></ele><time>2014-6-22T14:57:41Z</time></trkpt>
<trkpt lat="46.842668010618766" lon="6.560117916784575"><ele></ele><time>2014-6-22T14:57:44Z</time></trkpt>
<trkpt lat="46.84325868087956" lon="6.560894961315887"><ele></ele><time>2014-6-22T14:57:47Z</time></trkpt>
<trkpt lat="46.843713423358295" lon="6.561543118692206"><ele></ele><time>2014-6-22T14:57:50Z</time></trkpt>
<trkpt lat="46.84389531931723" lon="6.561802384704488"><ele></ele><time>2014-6-22T14:57:53Z</time></trkpt>
<trkpt lat="46.8442288292974" lon="6.5618887576713085"><ele></ele><time>2014-6-22T14:57:56Z</time></trkpt>
<trkpt lat="46.844843477431425" lon="6.562272129161194"><ele></ele><time>2014-6-22T14:57:59Z</time></trkpt>
<trkpt lat="46.84540165944327" lon="6.562328647476137"><ele></ele><time>2014-6-22T14:58:2Z</time></trkpt>
<trkpt lat="46.845986626373865" lon="6.562358511037496"><ele></ele><time>2014-6-22T14:58:5Z</time></trkpt>
<trkpt lat="46.84668972460336" lon="6.56254379902939"><ele></ele><time>2014-6-22T14:58:8Z</time></trkpt>
<trkpt lat="46.84709718875834" lon="6.562891212992842"><ele></ele><time>2014-6-22T14:58:11Z</time></trkpt>
<trkpt lat="46.84761468452789" lon="6.5635121955426285"><ele></ele><time>2014-6-22T14:58:14Z</time></trkpt>
<trkpt lat="46.84811458565302" lon="6.564185920953956"><ele></ele><time>2014-6-22T14:58:17Z</time></trkpt>
<trkpt lat="46.84879467910059" lon="6.564896085548046"><ele></ele><time>2014-6-22T14:58:20Z</time></trkpt>
<trkpt lat="46.84936563582282" lon="6.565450684440381"><ele></ele><time>2014-6-22T14:58:23Z</time></trkpt>
<trkpt lat="46.84978988740133" lon="6.565640521726412"><ele></ele><time>2014-6-22T14:58:26Z</time></trkpt>
<trkpt lat="46.85040004736273" lon="6.565433997103067"><ele></ele><time>2014-6-22T14:58:29Z</time></trkpt>
<trkpt lat="46.85068708767603" lon="6.56532446794543"><ele></ele><time>2014-6-22T14:58:32Z</time></trkpt>
<trkpt lat="46.85140846890804" lon="6.565548853259678"><ele></ele><time>2014-6-22T14:58:35Z</time></trkpt>
<trkpt lat="46.85179743679953" lon="6.565831055583126"><ele></ele><time>2014-6-22T14:58:38Z</time></trkpt>
<trkpt lat="46.85221683988649" lon="6.5664881077264585"><ele></ele><time>2014-6-22T14:58:41Z</time></trkpt>
<trkpt lat="46.852597211677605" lon="6.566822900231649"><ele></ele><time>2014-6-22T14:58:44Z</time></trkpt>
<trkpt lat="46.85281647099297" lon="6.567265199048794"><ele></ele><time>2014-6-22T14:58:47Z</time></trkpt>
<trkpt lat="46.85348686288235" lon="6.567883811196741"><ele></ele><time>2014-6-22T14:58:50Z</time></trkpt>
<trkpt lat="46.85380948456183" lon="6.567721254366618"><ele></ele><time>2014-6-22T14:58:53Z</time></trkpt>
<trkpt lat="46.854276819046476" lon="6.567661267972124"><ele></ele><time>2014-6-22T14:58:56Z</time></trkpt>
<trkpt lat="46.85469356424939" lon="6.5680479485638665"><ele></ele><time>2014-6-22T14:58:59Z</time></trkpt>
<trkpt lat="46.85520737372883" lon="6.568267611727406"><ele></ele><time>2014-6-22T14:59:2Z</time></trkpt>
<trkpt lat="46.85597917330179" lon="6.569212491912569"><ele></ele><time>2014-6-22T14:59:5Z</time></trkpt>
<trkpt lat="46.8564692635788" lon="6.569697891566964"><ele></ele><time>2014-6-22T14:59:8Z</time></trkpt>
<trkpt lat="46.8570994981487" lon="6.569766437929031"><ele></ele><time>2014-6-22T14:59:11Z</time></trkpt>
<trkpt lat="46.857425494431354" lon="6.570049702115738"><ele></ele><time>2014-6-22T14:59:14Z</time></trkpt>
<trkpt lat="46.857953538437435" lon="6.5708805141724635"><ele></ele><time>2014-6-22T14:59:17Z</time></trkpt>
<trkpt lat="46.858426617580754" lon="6.5715810823932195"><ele></ele><time>2014-6-22T14:59:20Z</time></trkpt>
<trkpt lat="46.859043807801136" lon="6.572305580449318"><ele></ele><time>2014-6-22T14:59:23Z</time></trkpt>
<trkpt lat="46.85981336133335" lon="6.573045906534913"><ele></ele><time>2014-6-22T14:59:26Z</time></trkpt>
<trkpt lat="46.86023888136697" lon="6.573406309971722"><ele></ele><time>2014-6-22T14:59:29Z</time></trkpt>
<trkpt lat="46.86032981582875" lon="6.57353600253688"><ele></ele><time>2014-6-22T14:59:32Z</time></trkpt>
<trkpt lat="46.86044379190892" lon="6.5731407406736615"><ele></ele><time>2014-6-22T14:59:35Z</time></trkpt>
<trkpt lat="46.860323110500126" lon="6.572644314460528"><ele></ele><time>2014-6-22T14:59:38Z</time></trkpt>
<trkpt lat="46.86022921414783" lon="6.572121232356135"><ele></ele><time>2014-6-22T14:59:41Z</time></trkpt>
<trkpt lat="46.86011930091595" lon="6.571860700423248"><ele></ele><time>2014-6-22T14:59:44Z</time></trkpt>
<trkpt lat="46.86025155735819" lon="6.571504487416156"><ele></ele><time>2014-6-22T14:59:47Z</time></trkpt>
<trkpt lat="46.86038519616224" lon="6.5713318556521285"><ele></ele><time>2014-6-22T14:59:50Z</time></trkpt>
<trkpt lat="46.860381736935466" lon="6.570872898189966"><ele></ele><time>2014-6-22T14:59:53Z</time></trkpt>
<trkpt lat="46.86051003302539" lon="6.569992157017209"><ele></ele><time>2014-6-22T14:59:56Z</time></trkpt>
<trkpt lat="46.86074546831127" lon="6.569004772135916"><ele></ele><time>2014-6-22T14:59:59Z</time></trkpt>
<trkpt lat="46.86103883065123" lon="6.568541039362527"><ele></ele><time>2014-6-22T15:0:2Z</time></trkpt>
<trkpt lat="46.8611882731196" lon="6.568079616681549"><ele></ele><time>2014-6-22T15:0:5Z</time></trkpt>
<trkpt lat="46.861209006382424" lon="6.567253046838815"><ele></ele><time>2014-6-22T15:0:8Z</time></trkpt>
<trkpt lat="46.86115807281293" lon="6.566466975881279"><ele></ele><time>2014-6-22T15:0:11Z</time></trkpt>
<trkpt lat="46.86120036376908" lon="6.566112193008923"><ele></ele><time>2014-6-22T15:0:14Z</time></trkpt>
<trkpt lat="46.86128732963803" lon="6.565717344317679"><ele></ele><time>2014-6-22T15:0:17Z</time></trkpt>
<trkpt lat="46.861213082907824" lon="6.565416899995551"><ele></ele><time>2014-6-22T15:0:20Z</time></trkpt>
<trkpt lat="46.861145142688144" lon="6.564762253690208"><ele></ele><time>2014-6-22T15:0:23Z</time></trkpt>
<trkpt lat="46.861066011533566" lon="6.563819263459489"><ele></ele><time>2014-6-22T15:0:26Z</time></trkpt>
<trkpt lat="46.860971775749846" lon="6.5632568498914905"><ele></ele><time>2014-6-22T15:0:29Z</time></trkpt>
<trkpt lat="46.86090482119284" lon="6.56273334105375"><ele></ele><time>2014-6-22T15:0:32Z</time></trkpt>
<trkpt lat="46.860808382881665" lon="6.561882441585209"><ele></ele><time>2014-6-22T15:0:35Z</time></trkpt>
<trkpt lat="46.86071643613192" lon="6.561621636171105"><ele></ele><time>2014-6-22T15:0:38Z</time></trkpt>
<trkpt lat="46.86059430505879" lon="6.560941649747855"><ele></ele><time>2014-6-22T15:0:41Z</time></trkpt>
<trkpt lat="46.86043308746197" lon="6.559855745433377"><ele></ele><time>2014-6-22T15:0:44Z</time></trkpt>
<trkpt lat="46.860355619630646" lon="6.55913569655256"><ele></ele><time>2014-6-22T15:0:47Z</time></trkpt>
<trkpt lat="46.86028914755397" lon="6.558677763933267"><ele></ele><time>2014-6-22T15:0:50Z</time></trkpt>
<trkpt lat="46.86007323664796" lon="6.557500960386323"><ele></ele><time>2014-6-22T15:0:53Z</time></trkpt>
<trkpt lat="46.85997726192512" lon="6.556715648112491"><ele></ele><time>2014-6-22T15:0:56Z</time></trkpt>
<trkpt lat="46.859818820631475" lon="6.555996930202911"><ele></ele><time>2014-6-22T15:0:59Z</time></trkpt>
<trkpt lat="46.85940227595279" lon="6.5544693338595765"><ele></ele><time>2014-6-22T15:1:2Z</time></trkpt>
<trkpt lat="46.859234321598564" lon="6.553685213493479"><ele></ele><time>2014-6-22T15:1:5Z</time></trkpt>
<trkpt lat="46.85885921361357" lon="6.5528206466807255"><ele></ele><time>2014-6-22T15:1:8Z</time></trkpt>
<trkpt lat="46.85885055768331" lon="6.552815632703458"><ele></ele><time>2014-6-22T15:1:11Z</time></trkpt>
<trkpt lat="46.85890351311596" lon="6.552683618881298"><ele></ele><time>2014-6-22T15:1:14Z</time></trkpt>
<trkpt lat="46.85872199563287" lon="6.552476771706346"><ele></ele><time>2014-6-22T15:1:17Z</time></trkpt>
<trkpt lat="46.85857686247974" lon="6.552321785085593"><ele></ele><time>2014-6-22T15:1:20Z</time></trkpt>
<trkpt lat="46.85830559921534" lon="6.552142644329236"><ele></ele><time>2014-6-22T15:1:23Z</time></trkpt>
<trkpt lat="46.85805110806805" lon="6.5518058593914965"><ele></ele><time>2014-6-22T15:1:26Z</time></trkpt>
<trkpt lat="46.857887172694255" lon="6.551546272625529"><ele></ele><time>2014-6-22T15:1:29Z</time></trkpt>
<trkpt lat="46.857577695861465" lon="6.551079257310228"><ele></ele><time>2014-6-22T15:1:32Z</time></trkpt>
<trkpt lat="46.857268826547156" lon="6.55069092129552"><ele></ele><time>2014-6-22T15:1:35Z</time></trkpt>
<trkpt lat="46.856959549439864" lon="6.550250140751958"><ele></ele><time>2014-6-22T15:1:38Z</time></trkpt>
<trkpt lat="46.85668706309568" lon="6.5499136696639395"><ele></ele><time>2014-6-22T15:1:41Z</time></trkpt>
<trkpt lat="46.85646752746856" lon="6.5494451909442954"><ele></ele><time>2014-6-22T15:1:44Z</time></trkpt>
<trkpt lat="46.85630195866465" lon="6.548975825657506"><ele></ele><time>2014-6-22T15:1:47Z</time></trkpt>
<trkpt lat="46.85620753166111" lon="6.548400378970201"><ele></ele><time>2014-6-22T15:1:50Z</time></trkpt>
<trkpt lat="46.856186893978226" lon="6.5480597625417065"><ele></ele><time>2014-6-22T15:1:53Z</time></trkpt>
<trkpt lat="46.85614765422421" lon="6.547640771326992"><ele></ele><time>2014-6-22T15:1:56Z</time></trkpt>
<trkpt lat="46.855946914581075" lon="6.54727690511827"><ele></ele><time>2014-6-22T15:1:59Z</time></trkpt>
<trkpt lat="46.85563762427483" lon="6.546836155004109"><ele></ele><time>2014-6-22T15:2:2Z</time></trkpt>
<trkpt lat="46.85530973029289" lon="6.546317036583306"><ele></ele><time>2014-6-22T15:2:5Z</time></trkpt>
<trkpt lat="46.85494605904247" lon="6.545824743680718"><ele></ele><time>2014-6-22T15:2:8Z</time></trkpt>
<trkpt lat="46.85463778478969" lon="6.545515126817345"><ele></ele><time>2014-6-22T15:2:11Z</time></trkpt>
<trkpt lat="46.85432991846088" lon="6.545257959885138"><ele></ele><time>2014-6-22T15:2:14Z</time></trkpt>
<trkpt lat="46.85405394069335" lon="6.544475738518299"><ele></ele><time>2014-6-22T15:2:17Z</time></trkpt>
<trkpt lat="46.85390654570232" lon="6.544032334084938"><ele></ele><time>2014-6-22T15:2:20Z</time></trkpt>
<trkpt lat="46.85373870182484" lon="6.543274555874367"><ele></ele><time>2014-6-22T15:2:23Z</time></trkpt>
<trkpt lat="46.85358945749963" lon="6.54259515191326"><ele></ele><time>2014-6-22T15:2:26Z</time></trkpt>
<trkpt lat="46.85349499839061" lon="6.542019745393692"><ele></ele><time>2014-6-22T15:2:29Z</time></trkpt>
<trkpt lat="46.85345594173328" lon="6.541627002273171"><ele></ele><time>2014-6-22T15:2:32Z</time></trkpt>
<trkpt lat="46.853437131264535" lon="6.541522410530187"><ele></ele><time>2014-6-22T15:2:35Z</time></trkpt>
<trkpt lat="46.853255593484874" lon="6.5413156219802975"><ele></ele><time>2014-6-22T15:2:38Z</time></trkpt>
<trkpt lat="46.85327322069054" lon="6.5413253630190935"><ele></ele><time>2014-6-22T15:2:41Z</time></trkpt>
<trkpt lat="46.85290933597676" lon="6.540806880630371"><ele></ele><time>2014-6-22T15:2:44Z</time></trkpt>
<trkpt lat="46.85267852892144" lon="6.5400501650235645"><ele></ele><time>2014-6-22T15:2:47Z</time></trkpt>
<trkpt lat="46.85255883095003" lon="6.539698106578339"><ele></ele><time>2014-6-22T15:2:50Z</time></trkpt>
<trkpt lat="46.85228591209458" lon="6.539309257522678"><ele></ele><time>2014-6-22T15:2:53Z</time></trkpt>
<trkpt lat="46.8520399764518" lon="6.538919963789428"><ele></ele><time>2014-6-22T15:2:56Z</time></trkpt>
<trkpt lat="46.851830736745505" lon="6.538621851718481"><ele></ele><time>2014-6-22T15:2:59Z</time></trkpt>
<trkpt lat="46.851694070501736" lon="6.538401210253109"><ele></ele><time>2014-6-22T15:3:2Z</time></trkpt>
<trkpt lat="46.85136095345254" lon="6.538367413865812"><ele></ele><time>2014-6-22T15:3:5Z</time></trkpt>
<trkpt lat="46.85102972607838" lon="6.5385515410246375"><ele></ele><time>2014-6-22T15:3:8Z</time></trkpt>
<trkpt lat="46.85102108312259" lon="6.538572953036404"><ele></ele><time>2014-6-22T15:3:11Z</time></trkpt>
<trkpt lat="46.85084180515077" lon="6.538654619865392"><ele></ele><time>2014-6-22T15:3:14Z</time></trkpt>
<trkpt lat="46.85069891799273" lon="6.538788128578421"><ele></ele><time>2014-6-22T15:3:17Z</time></trkpt>
<trkpt lat="46.850682780947785" lon="6.539024421283269"><ele></ele><time>2014-6-22T15:3:20Z</time></trkpt>
<trkpt lat="46.85064844808681" lon="6.5392347924796645"><ele></ele><time>2014-6-22T15:3:23Z</time></trkpt>
<trkpt lat="46.850486953459914" lon="6.539289935249297"><ele></ele><time>2014-6-22T15:3:26Z</time></trkpt>
<trkpt lat="46.85016252390845" lon="6.539216671804379"><ele></ele><time>2014-6-22T15:3:29Z</time></trkpt>
<trkpt lat="46.84987427921915" lon="6.53916903015113"><ele></ele><time>2014-6-22T15:3:32Z</time></trkpt>
<trkpt lat="46.84964041477875" lon="6.539172930624626"><ele></ele><time>2014-6-22T15:3:35Z</time></trkpt>
<trkpt lat="46.84942556870004" lon="6.539307634942647"><ele></ele><time>2014-6-22T15:3:38Z</time></trkpt>
<trkpt lat="46.8491563422953" lon="6.539390796709688"><ele></ele><time>2014-6-22T15:3:41Z</time></trkpt>
<trkpt lat="46.84881536322235" lon="6.539501377852391"><ele></ele><time>2014-6-22T15:3:44Z</time></trkpt>
<trkpt lat="46.84852794139522" lon="6.539558617254986"><ele></ele><time>2014-6-22T15:3:47Z</time></trkpt>
<trkpt lat="46.84827711567701" lon="6.539693916961389"><ele></ele><time>2014-6-22T15:3:50Z</time></trkpt>
<trkpt lat="46.84799010500659" lon="6.539803594936268"><ele></ele><time>2014-6-22T15:3:53Z</time></trkpt>
<trkpt lat="46.84768510464113" lon="6.539913571520026"><ele></ele><time>2014-6-22T15:3:56Z</time></trkpt>
<trkpt lat="46.84736211457759" lon="6.540023846597523"><ele></ele><time>2014-6-22T15:3:59Z</time></trkpt>
<trkpt lat="46.84711026045009" lon="6.540028042918128"><ele></ele><time>2014-6-22T15:4:2Z</time></trkpt>
<trkpt lat="46.846858611889374" lon="6.5400584587355315"><ele></ele><time>2014-6-22T15:4:5Z</time></trkpt>
<trkpt lat="46.84657160081639" lon="6.540168131882203"><ele></ele><time>2014-6-22T15:4:8Z</time></trkpt>
<trkpt lat="46.84621263129349" lon="6.540279002450642"><ele></ele><time>2014-6-22T15:4:11Z</time></trkpt>
<trkpt lat="46.84585427810858" lon="6.54046852868564"><ele></ele><time>2014-6-22T15:4:14Z</time></trkpt>
<trkpt lat="46.84562082444366" lon="6.54052486110231"><ele></ele><time>2014-6-22T15:4:17Z</time></trkpt>
<trkpt lat="46.845261854530754" lon="6.540635727338522"><ele></ele><time>2014-6-22T15:4:20Z</time></trkpt>
<trkpt lat="46.844776751960026" lon="6.540722469955437"><ele></ele><time>2014-6-22T15:4:23Z</time></trkpt>
<trkpt lat="46.84438200802943" lon="6.540860150376362"><ele></ele><time>2014-6-22T15:4:26Z</time></trkpt>
<trkpt lat="46.84404123268491" lon="6.540996930594471"><ele></ele><time>2014-6-22T15:4:29Z</time></trkpt>
<trkpt lat="46.84389793200255" lon="6.541077980045799"><ele></ele><time>2014-6-22T15:4:32Z</time></trkpt>
<trkpt lat="46.84368123550578" lon="6.540976700474356"><ele></ele><time>2014-6-22T15:4:35Z</time></trkpt>
<trkpt lat="46.84335660136286" lon="6.540877218313045"><ele></ele><time>2014-6-22T15:4:38Z</time></trkpt>
<trkpt lat="46.843103103809064" lon="6.540671668657287"><ele></ele><time>2014-6-22T15:4:41Z</time></trkpt>
<trkpt lat="46.84288681782869" lon="6.540622827424433"><ele></ele><time>2014-6-22T15:4:44Z</time></trkpt>
<trkpt lat="46.842563005160486" lon="6.540628218649882"><ele></ele><time>2014-6-22T15:4:47Z</time></trkpt>
<trkpt lat="46.842670839683116" lon="6.540675168121777"><ele></ele><time>2014-6-22T15:4:50Z</time></trkpt>
<trkpt lat="46.842489919292994" lon="6.540547065894798"><ele></ele><time>2014-6-22T15:4:53Z</time></trkpt>
<trkpt lat="46.842291520737916" lon="6.540484806129792"><ele></ele><time>2014-6-22T15:4:56Z</time></trkpt>
<trkpt lat="46.8418855239502" lon="6.540334220215059"><ele></ele><time>2014-6-22T15:4:59Z</time></trkpt>
<trkpt lat="46.84129850359631" lon="6.540042430453885"><ele></ele><time>2014-6-22T15:5:2Z</time></trkpt>
<trkpt lat="46.84077506097096" lon="6.539828250930757"><ele></ele><time>2014-6-22T15:5:5Z</time></trkpt>
<trkpt lat="46.8403964575323" lon="6.539729658672523"><ele></ele><time>2014-6-22T15:5:8Z</time></trkpt>
<trkpt lat="46.839965216343565" lon="6.539802368756073"><ele></ele><time>2014-6-22T15:5:11Z</time></trkpt>
<trkpt lat="46.83978583118664" lon="6.539870895962698"><ele></ele><time>2014-6-22T15:5:14Z</time></trkpt>
<trkpt lat="46.83920044835814" lon="6.539788848421763"><ele></ele><time>2014-6-22T15:5:17Z</time></trkpt>
<trkpt lat="46.83864071836305" lon="6.539535954109952"><ele></ele><time>2014-6-22T15:5:20Z</time></trkpt>
<trkpt lat="46.83832538597409" lon="6.539475644853359"><ele></ele><time>2014-6-22T15:5:23Z</time></trkpt>
<trkpt lat="46.83793983622291" lon="6.539639360094829"><ele></ele><time>2014-6-22T15:5:26Z</time></trkpt>
<trkpt lat="46.837472103381046" lon="6.539647127865097"><ele></ele><time>2014-6-22T15:5:29Z</time></trkpt>
<trkpt lat="46.83694988916204" lon="6.53959025518586"><ele></ele><time>2014-6-22T15:5:32Z</time></trkpt>
<trkpt lat="46.83652743789558" lon="6.539636597960032"><ele></ele><time>2014-6-22T15:5:35Z</time></trkpt>
<trkpt lat="46.836050710116325" lon="6.5396445149361595"><ele></ele><time>2014-6-22T15:5:38Z</time></trkpt>
<trkpt lat="46.83560096690471" lon="6.53965198365626"><ele></ele><time>2014-6-22T15:5:41Z</time></trkpt>
<trkpt lat="46.83515142852835" lon="6.5396856660104925"><ele></ele><time>2014-6-22T15:5:44Z</time></trkpt>
<trkpt lat="46.83492706901875" lon="6.539754934271839"><ele></ele><time>2014-6-22T15:5:47Z</time></trkpt>
<trkpt lat="46.83461224872883" lon="6.539760161640136"><ele></ele><time>2014-6-22T15:5:50Z</time></trkpt>
<trkpt lat="46.83434342686785" lon="6.539895709010782"><ele></ele><time>2014-6-22T15:5:53Z</time></trkpt>
<trkpt lat="46.83419235716044" lon="6.540134167213605"><ele></ele><time>2014-6-22T15:5:56Z</time></trkpt>
<trkpt lat="46.83403977171779" lon="6.54014535385504"><ele></ele><time>2014-6-22T15:5:59Z</time></trkpt>
<trkpt lat="46.83401092402064" lon="6.539940553961376"><ele></ele><time>2014-6-22T15:6:2Z</time></trkpt>
<trkpt lat="46.83393712167649" lon="6.5397058300282875"><ele></ele><time>2014-6-22T15:6:5Z</time></trkpt>
<trkpt lat="46.83382692956697" lon="6.539419278109893"><ele></ele><time>2014-6-22T15:6:8Z</time></trkpt>
<trkpt lat="46.833827032024246" lon="6.539432384665407"><ele></ele><time>2014-6-22T15:6:11Z</time></trkpt>
<trkpt lat="46.833890405900355" lon="6.539483765112026"><ele></ele><time>2014-6-22T15:6:14Z</time></trkpt>
<trkpt lat="46.83341703585326" lon="6.538770678595658"><ele></ele><time>2014-6-22T15:6:17Z</time></trkpt>
<trkpt lat="46.833097805310246" lon="6.538212337356011"><ele></ele><time>2014-6-22T15:6:20Z</time></trkpt>
<trkpt lat="46.83277990648858" lon="6.537824384598153"><ele></ele><time>2014-6-22T15:6:23Z</time></trkpt>
<trkpt lat="46.83261522708961" lon="6.537473209694003"><ele></ele><time>2014-6-22T15:6:26Z</time></trkpt>
<trkpt lat="46.832744500344106" lon="6.536750117871179"><ele></ele><time>2014-6-22T15:6:29Z</time></trkpt>
<trkpt lat="46.83272239888876" lon="6.536226166285236"><ele></ele><time>2014-6-22T15:6:32Z</time></trkpt>
<trkpt lat="46.83246694301303" lon="6.535771646836562"><ele></ele><time>2014-6-22T15:6:35Z</time></trkpt>
<trkpt lat="46.832012569015724" lon="6.5351893725353385"><ele></ele><time>2014-6-22T15:6:38Z</time></trkpt>
<trkpt lat="46.83155561636163" lon="6.534279458184228"><ele></ele><time>2014-6-22T15:6:41Z</time></trkpt>
<trkpt lat="46.831216311663454" lon="6.533459345297544"><ele></ele><time>2014-6-22T15:6:44Z</time></trkpt>
<trkpt lat="46.83104872924371" lon="6.532741229582921"><ele></ele><time>2014-6-22T15:6:47Z</time></trkpt>
<trkpt lat="46.83102557656851" lon="6.532086237494834"><ele></ele><time>2014-6-22T15:6:50Z</time></trkpt>
<trkpt lat="46.83076648611268" lon="6.531173049054404"><ele></ele><time>2014-6-22T15:6:53Z</time></trkpt>
<trkpt lat="46.830353958256154" lon="6.530196906657188"><ele></ele><time>2014-6-22T15:6:56Z</time></trkpt>
<trkpt lat="46.829851991605224" lon="6.529287818026999"><ele></ele><time>2014-6-22T15:6:59Z</time></trkpt>
<trkpt lat="46.82974073683526" lon="6.528870253669606"><ele></ele><time>2014-6-22T15:7:2Z</time></trkpt>
<trkpt lat="46.829347943006525" lon="6.5281166373924036"><ele></ele><time>2014-6-22T15:7:5Z</time></trkpt>
<trkpt lat="46.828918749427984" lon="6.52731121635477"><ele></ele><time>2014-6-22T15:7:8Z</time></trkpt>
<trkpt lat="46.828371265789734" lon="6.526337410575864"><ele></ele><time>2014-6-22T15:7:11Z</time></trkpt>
<trkpt lat="46.82811597859143" lon="6.52590918493093"><ele></ele><time>2014-6-22T15:7:14Z</time></trkpt>
<trkpt lat="46.82755340789851" lon="6.525302651606816"><ele></ele><time>2014-6-22T15:7:17Z</time></trkpt>
<trkpt lat="46.826845770663" lon="6.5245544073107995"><ele></ele><time>2014-6-22T15:7:20Z</time></trkpt>
<trkpt lat="46.82641988716724" lon="6.524168403239108"><ele></ele><time>2014-6-22T15:7:23Z</time></trkpt>
<trkpt lat="46.82593586219444" lon="6.523259132887812"><ele></ele><time>2014-6-22T15:7:26Z</time></trkpt>
<trkpt lat="46.82565818949758" lon="6.522280854808225"><ele></ele><time>2014-6-22T15:7:29Z</time></trkpt>
<trkpt lat="46.82560642492299" lon="6.521429821851437"><ele></ele><time>2014-6-22T15:7:32Z</time></trkpt>
<trkpt lat="46.82535603502347" lon="6.520490414898889"><ele></ele><time>2014-6-22T15:7:35Z</time></trkpt>
<trkpt lat="46.824934775105774" lon="6.519562797178808"><ele></ele><time>2014-6-22T15:7:38Z</time></trkpt>
<trkpt lat="46.82473458025271" lon="6.5192778670972285"><ele></ele><time>2014-6-22T15:7:41Z</time></trkpt>
<trkpt lat="46.82490909634894" lon="6.518597605679233"><ele></ele><time>2014-6-22T15:7:44Z</time></trkpt>
<trkpt lat="46.824929473057516" lon="6.517771572780861"><ele></ele><time>2014-6-22T15:7:47Z</time></trkpt>
<trkpt lat="46.824757380265325" lon="6.5165032085046475"><ele></ele><time>2014-6-22T15:7:50Z</time></trkpt>
<trkpt lat="46.82456802027405" lon="6.515326888971888"><ele></ele><time>2014-6-22T15:7:53Z</time></trkpt>
<trkpt lat="46.824475651551744" lon="6.515027025511319"><ele></ele><time>2014-6-22T15:7:56Z</time></trkpt>
<trkpt lat="46.824105325684066" lon="6.51372274877782"><ele></ele><time>2014-6-22T15:7:59Z</time></trkpt>
<trkpt lat="46.824007468337726" lon="6.5127414763652105"><ele></ele><time>2014-6-22T15:8:2Z</time></trkpt>
<trkpt lat="46.82407626112196" lon="6.512347121633304"><ele></ele><time>2014-6-22T15:8:5Z</time></trkpt>
<trkpt lat="46.82452420844551" lon="6.512116654560656"><ele></ele><time>2014-6-22T15:8:8Z</time></trkpt>
<trkpt lat="46.82517415924564" lon="6.512393867811282"><ele></ele><time>2014-6-22T15:8:11Z</time></trkpt>
<trkpt lat="46.825788763049246" lon="6.512750330453761"><ele></ele><time>2014-6-22T15:8:14Z</time></trkpt>
<trkpt lat="46.82657468948782" lon="6.513156298433562"><ele></ele><time>2014-6-22T15:8:17Z</time></trkpt>
<trkpt lat="46.826961467525244" lon="6.513149686318585"><ele></ele><time>2014-6-22T15:8:20Z</time></trkpt>
<trkpt lat="46.82713767218443" lon="6.512687940056838"><ele></ele><time>2014-6-22T15:8:23Z</time></trkpt>
<trkpt lat="46.826922133718206" lon="6.511616882702736"><ele></ele><time>2014-6-22T15:8:26Z</time></trkpt>
<trkpt lat="46.82659748377679" lon="6.510403532170474"><ele></ele><time>2014-6-22T15:8:29Z</time></trkpt>
<trkpt lat="46.82629991139197" lon="6.509202837623019"><ele></ele><time>2014-6-22T15:8:32Z</time></trkpt>
<trkpt lat="46.82575386395573" lon="6.508425830976633"><ele></ele><time>2014-6-22T15:8:35Z</time></trkpt>
<trkpt lat="46.82507129720773" lon="6.507454594800262"><ele></ele><time>2014-6-22T15:8:38Z</time></trkpt>
<trkpt lat="46.824840269347106" lon="6.506698412607841"><ele></ele><time>2014-6-22T15:8:41Z</time></trkpt>
<trkpt lat="46.824490496618985" lon="6.505721479656163"><ele></ele><time>2014-6-22T15:8:44Z</time></trkpt>
<trkpt lat="46.82415162575139" lon="6.504980278714161"><ele></ele><time>2014-6-22T15:8:47Z</time></trkpt>
<trkpt lat="46.82371348751081" lon="6.504201482727578"><ele></ele><time>2014-6-22T15:8:50Z</time></trkpt>
<trkpt lat="46.82348616724042" lon="6.503903972628883"><ele></ele><time>2014-6-22T15:8:53Z</time></trkpt>
<trkpt lat="46.823195988944356" lon="6.503620656413204"><ele></ele><time>2014-6-22T15:8:56Z</time></trkpt>
<trkpt lat="46.82298612386379" lon="6.503257321554058"><ele></ele><time>2014-6-22T15:8:59Z</time></trkpt>
<trkpt lat="46.82260567578821" lon="6.502936254733027"><ele></ele><time>2014-6-22T15:9:2Z</time></trkpt>
<trkpt lat="46.82228819059506" lon="6.502614103834299"><ele></ele><time>2014-6-22T15:9:5Z</time></trkpt>
<trkpt lat="46.821969957524445" lon="6.502200231499838"><ele></ele><time>2014-6-22T15:9:8Z</time></trkpt>
<trkpt lat="46.821068873841575" lon="6.502019238867408"><ele></ele><time>2014-6-22T15:9:11Z</time></trkpt>
<trkpt lat="46.820167789787746" lon="6.50183825229442"><ele></ele><time>2014-6-22T15:9:14Z</time></trkpt>
<trkpt lat="46.81960004792059" lon="6.501717027199467"><ele></ele><time>2014-6-22T15:9:17Z</time></trkpt>
<trkpt lat="46.818994938265796" lon="6.501426089926869"><ele></ele><time>2014-6-22T15:9:20Z</time></trkpt>
<trkpt lat="46.81802029192322" lon="6.501049826470017"><ele></ele><time>2014-6-22T15:9:23Z</time></trkpt>
<trkpt lat="46.81705303557919" lon="6.500476884703369"><ele></ele><time>2014-6-22T15:9:26Z</time></trkpt>
<trkpt lat="46.81607603257076" lon="6.499812404276948"><ele></ele><time>2014-6-22T15:9:29Z</time></trkpt>
<trkpt lat="46.815968094608394" lon="6.499814275864733"><ele></ele><time>2014-6-22T15:9:32Z</time></trkpt>
<trkpt lat="46.816204190771685" lon="6.501186107560041"><ele></ele><time>2014-6-22T15:9:35Z</time></trkpt>
<trkpt lat="46.81620707463581" lon="6.50153986701123"><ele></ele><time>2014-6-22T15:9:38Z</time></trkpt>
<trkpt lat="46.81575946848019" lon="6.501809692734209"><ele></ele><time>2014-6-22T15:9:41Z</time></trkpt>
<trkpt lat="46.814699999484816" lon="6.502063890015794"><ele></ele><time>2014-6-22T15:9:44Z</time></trkpt>
<trkpt lat="46.813919049605936" lon="6.502273950575108"><ele></ele><time>2014-6-22T15:9:47Z</time></trkpt>
<trkpt lat="46.81303776909259" lon="6.502315397041814"><ele></ele><time>2014-6-22T15:9:50Z</time></trkpt>
<trkpt lat="46.8123451666686" lon="6.50232737347572"><ele></ele><time>2014-6-22T15:9:53Z</time></trkpt>
<trkpt lat="46.81153989802394" lon="6.502865414334547"><ele></ele><time>2014-6-22T15:9:56Z</time></trkpt>
<trkpt lat="46.81089691202307" lon="6.504553678757855"><ele></ele><time>2014-6-22T15:9:59Z</time></trkpt>
<trkpt lat="46.81072839619404" lon="6.505958575846753"><ele></ele><time>2014-6-22T15:10:2Z</time></trkpt>
<trkpt lat="46.8106324586144" lon="6.507440831772941"><ele></ele><time>2014-6-22T15:10:5Z</time></trkpt>
<trkpt lat="46.81042052228344" lon="6.509042997315812"><ele></ele><time>2014-6-22T15:10:8Z</time></trkpt>
<trkpt lat="46.810159992982065" lon="6.51020049543618"><ele></ele><time>2014-6-22T15:10:11Z</time></trkpt>
<trkpt lat="46.81018242493179" lon="6.510750418736977"><ele></ele><time>2014-6-22T15:10:14Z</time></trkpt>
<trkpt lat="46.81021891969734" lon="6.511929025254605"><ele></ele><time>2014-6-22T15:10:17Z</time></trkpt>
<trkpt lat="46.8103157291695" lon="6.512779037393866"><ele></ele><time>2014-6-22T15:10:20Z</time></trkpt>
<trkpt lat="46.810371562454606" lon="6.514127651517006"><ele></ele><time>2014-6-22T15:10:23Z</time></trkpt>
<trkpt lat="46.81060696139738" lon="6.515433899048083"><ele></ele><time>2014-6-22T15:10:26Z</time></trkpt>
<trkpt lat="46.8110721526711" lon="6.517352076002997"><ele></ele><time>2014-6-22T15:10:29Z</time></trkpt>
<trkpt lat="46.811504877570776" lon="6.518589487265836"><ele></ele><time>2014-6-22T15:10:32Z</time></trkpt>
<trkpt lat="46.81198820712939" lon="6.519406763879575"><ele></ele><time>2014-6-22T15:10:35Z</time></trkpt>
<trkpt lat="46.812173339807984" lon="6.520058772965619"><ele></ele><time>2014-6-22T15:10:38Z</time></trkpt>
<trkpt lat="46.81247111249157" lon="6.521298516792743"><ele></ele><time>2014-6-22T15:10:41Z</time></trkpt>
<trkpt lat="46.812731848337485" lon="6.522407868986915"><ele></ele><time>2014-6-22T15:10:44Z</time></trkpt>
<trkpt lat="46.81293756140674" lon="6.523387129424794"><ele></ele><time>2014-6-22T15:10:47Z</time></trkpt>
<trkpt lat="46.81298826949831" lon="6.524106949710121"><ele></ele><time>2014-6-22T15:10:50Z</time></trkpt>
<trkpt lat="46.81308363501283" lon="6.5247867079535276"><ele></ele><time>2014-6-22T15:10:53Z</time></trkpt>
<trkpt lat="46.81302899665571" lon="6.5258358884661725"><ele></ele><time>2014-6-22T15:10:56Z</time></trkpt>
<trkpt lat="46.812783690067334" lon="6.526665523003062"><ele></ele><time>2014-6-22T15:10:59Z</time></trkpt>
<trkpt lat="46.81236892827578" lon="6.527681443901006"><ele></ele><time>2014-6-22T15:11:2Z</time></trkpt>
<trkpt lat="46.811971421377514" lon="6.528605338322271"><ele></ele><time>2014-6-22T15:11:5Z</time></trkpt>
<trkpt lat="46.811366817725265" lon="6.5295064898953195"><ele></ele><time>2014-6-22T15:11:8Z</time></trkpt>
<trkpt lat="46.81087386045282" lon="6.529737511183431"><ele></ele><time>2014-6-22T15:11:11Z</time></trkpt>
<trkpt lat="46.810228818060835" lon="6.530075900336001"><ele></ele><time>2014-6-22T15:11:14Z</time></trkpt>
<trkpt lat="46.80993405736701" lon="6.53034289475562"><ele></ele><time>2014-6-22T15:11:17Z</time></trkpt>
<trkpt lat="46.80953683907451" lon="6.531306029774574"><ele></ele><time>2014-6-22T15:11:20Z</time></trkpt>
<trkpt lat="46.809298111578556" lon="6.531834121765785"><ele></ele><time>2014-6-22T15:11:23Z</time></trkpt>
<trkpt lat="46.80905007696022" lon="6.532323058033513"><ele></ele><time>2014-6-22T15:11:26Z</time></trkpt>
<trkpt lat="46.80854098226728" lon="6.5327901518222795"><ele></ele><time>2014-6-22T15:11:29Z</time></trkpt>
<trkpt lat="46.80792726572451" lon="6.53253837700128"><ele></ele><time>2014-6-22T15:11:32Z</time></trkpt>
<trkpt lat="46.807429759096" lon="6.532192950166803"><ele></ele><time>2014-6-22T15:11:35Z</time></trkpt>
<trkpt lat="46.80697712248344" lon="6.531833676695348"><ele></ele><time>2014-6-22T15:11:38Z</time></trkpt>
<trkpt lat="46.8064613138184" lon="6.531449264086963"><ele></ele><time>2014-6-22T15:11:41Z</time></trkpt>
<trkpt lat="46.80605189103629" lon="6.530866553236403"><ele></ele><time>2014-6-22T15:11:44Z</time></trkpt>
<trkpt lat="46.805884291935996" lon="6.530148780612694"><ele></ele><time>2014-6-22T15:11:47Z</time></trkpt>
<trkpt lat="46.805609578537336" lon="6.52953762187206"><ele></ele><time>2014-6-22T15:11:50Z</time></trkpt>
<trkpt lat="46.805273659687096" lon="6.529150220102405"><ele></ele><time>2014-6-22T15:11:53Z</time></trkpt>
<trkpt lat="46.80500329512459" lon="6.529089253725325"><ele></ele><time>2014-6-22T15:11:56Z</time></trkpt>
<trkpt lat="46.80461464955858" lon="6.528859959063778"><ele></ele><time>2014-6-22T15:11:59Z</time></trkpt>
<trkpt lat="46.80425101773947" lon="6.528381326676303"><ele></ele><time>2014-6-22T15:12:2Z</time></trkpt>
<trkpt lat="46.80397650244582" lon="6.527796394004169"><ele></ele><time>2014-6-22T15:12:5Z</time></trkpt>
<trkpt lat="46.803522086593176" lon="6.527214494530604"><ele></ele><time>2014-6-22T15:12:8Z</time></trkpt>
<trkpt lat="46.803096730508095" lon="6.526894131805637"><ele></ele><time>2014-6-22T15:12:11Z</time></trkpt>
<trkpt lat="46.80278190976309" lon="6.526899431267437"><ele></ele><time>2014-6-22T15:12:14Z</time></trkpt>
<trkpt lat="46.80237163199225" lon="6.526212003583898"><ele></ele><time>2014-6-22T15:12:17Z</time></trkpt>
<trkpt lat="46.80198277257503" lon="6.525956543256489"><ele></ele><time>2014-6-22T15:12:20Z</time></trkpt>
<trkpt lat="46.801442039837106" lon="6.525834650581029"><ele></ele><time>2014-6-22T15:12:23Z</time></trkpt>
<trkpt lat="46.801064774975565" lon="6.525906510013885"><ele></ele><time>2014-6-22T15:12:26Z</time></trkpt>
<trkpt lat="46.800588046389485" lon="6.525914543324991"><ele></ele><time>2014-6-22T15:12:29Z</time></trkpt>
<trkpt lat="46.800388390792335" lon="6.525695204948136"><ele></ele><time>2014-6-22T15:12:32Z</time></trkpt>
<trkpt lat="46.79972572855083" lon="6.524946573850873"><ele></ele><time>2014-6-22T15:12:35Z</time></trkpt>
<trkpt lat="46.799228198635106" lon="6.524601269572936"><ele></ele><time>2014-6-22T15:12:38Z</time></trkpt>
<trkpt lat="46.79893880006376" lon="6.524409655907183"><ele></ele><time>2014-6-22T15:12:41Z</time></trkpt>
<trkpt lat="46.799132206482724" lon="6.523843097659267"><ele></ele><time>2014-6-22T15:12:44Z</time></trkpt>
<trkpt lat="46.799334709276" lon="6.523289481487523"><ele></ele><time>2014-6-22T15:12:47Z</time></trkpt>
<trkpt lat="46.79948657907578" lon="6.5231559155674566"><ele></ele><time>2014-6-22T15:12:50Z</time></trkpt>
<trkpt lat="46.799486787708716" lon="6.523182111933101"><ele></ele><time>2014-6-22T15:12:53Z</time></trkpt>
<trkpt lat="46.799530510202764" lon="6.523024173494729"><ele></ele><time>2014-6-22T15:12:56Z</time></trkpt>
<trkpt lat="46.799573084526315" lon="6.5227221545647485"><ele></ele><time>2014-6-22T15:12:59Z</time></trkpt>
<trkpt lat="46.79970539799943" lon="6.522392417180529"><ele></ele><time>2014-6-22T15:13:2Z</time></trkpt>
<trkpt lat="46.79974880612699" lon="6.52219518272771"><ele></ele><time>2014-6-22T15:13:5Z</time></trkpt>
<trkpt lat="46.79974650835254" lon="6.521907021358095"><ele></ele><time>2014-6-22T15:13:8Z</time></trkpt>
<trkpt lat="46.79969965344455" lon="6.521672014361125"><ele></ele><time>2014-6-22T15:13:11Z</time></trkpt>
<trkpt lat="46.79969756339221" lon="6.521410049737105"><ele></ele><time>2014-6-22T15:13:14Z</time></trkpt>
<trkpt lat="46.79967884198457" lon="6.521318666792324"><ele></ele><time>2014-6-22T15:13:17Z</time></trkpt>
<trkpt lat="46.799545486623714" lon="6.5215174247066905"><ele></ele><time>2014-6-22T15:13:20Z</time></trkpt>
<trkpt lat="46.79947457260624" lon="6.521649624879848"><ele></ele><time>2014-6-22T15:13:23Z</time></trkpt>
<trkpt lat="46.79938483283788" lon="6.5216773439743765"><ele></ele><time>2014-6-22T15:13:26Z</time></trkpt>
<trkpt lat="46.79927689434194" lon="6.5216791712562685"><ele></ele><time>2014-6-22T15:13:29Z</time></trkpt>
<trkpt lat="46.79911164226061" lon="6.521262773318662"><ele></ele><time>2014-6-22T15:13:32Z</time></trkpt>
<trkpt lat="46.79906457690244" lon="6.521001573493949"><ele></ele><time>2014-6-22T15:13:35Z</time></trkpt>
<trkpt lat="46.79901594186742" lon="6.52054390316555"><ele></ele><time>2014-6-22T15:13:38Z</time></trkpt>
<trkpt lat="46.79894879189442" lon="6.520021048505376"><ele></ele><time>2014-6-22T15:13:41Z</time></trkpt>
<trkpt lat="46.79894481310898" lon="6.519523322783061"><ele></ele><time>2014-6-22T15:13:44Z</time></trkpt>
<trkpt lat="46.7988499402745" lon="6.5189092420942485"><ele></ele><time>2014-6-22T15:13:47Z</time></trkpt>
<trkpt lat="46.798729862171946" lon="6.518518287899181"><ele></ele><time>2014-6-22T15:13:50Z</time></trkpt>
<trkpt lat="46.79863624286156" lon="6.5180613870191255"><ele></ele><time>2014-6-22T15:13:53Z</time></trkpt>
<trkpt lat="46.79852515673289" lon="6.517670283319404"><ele></ele><time>2014-6-22T15:13:56Z</time></trkpt>
<trkpt lat="46.7984317440302" lon="6.517239581474277"><ele></ele><time>2014-6-22T15:13:59Z</time></trkpt>
<trkpt lat="46.798339170009086" lon="6.516913664257526"><ele></ele><time>2014-6-22T15:14:2Z</time></trkpt>
<trkpt lat="46.7982913592626" lon="6.51656078680174"><ele></ele><time>2014-6-22T15:14:5Z</time></trkpt>
<trkpt lat="46.798198783308884" lon="6.516234871597223"><ele></ele><time>2014-6-22T15:14:8Z</time></trkpt>
<trkpt lat="46.798168855056026" lon="6.515868591337991"><ele></ele><time>2014-6-22T15:14:11Z</time></trkpt>
<trkpt lat="46.79814907753323" lon="6.515646234463635"><ele></ele><time>2014-6-22T15:14:14Z</time></trkpt>
<trkpt lat="46.798146658073726" lon="6.515344984069211"><ele></ele><time>2014-6-22T15:14:17Z</time></trkpt>
<trkpt lat="46.79801362861717" lon="6.515583044542927"><ele></ele><time>2014-6-22T15:14:20Z</time></trkpt>
<trkpt lat="46.79787996769715" lon="6.515742517169699"><ele></ele><time>2014-6-22T15:14:23Z</time></trkpt>
<trkpt lat="46.797719427095" lon="6.51591554644281"><ele></ele><time>2014-6-22T15:14:26Z</time></trkpt>
<trkpt lat="46.79752227597089" lon="6.516010601333399"><ele></ele><time>2014-6-22T15:14:29Z</time></trkpt>
<trkpt lat="46.797342693993365" lon="6.516052958539629"><ele></ele><time>2014-6-22T15:14:32Z</time></trkpt>
<trkpt lat="46.79718026068442" lon="6.515990228191596"><ele></ele><time>2014-6-22T15:14:35Z</time></trkpt>
<trkpt lat="46.79702650676725" lon="6.515888052280115"><ele></ele><time>2014-6-22T15:14:38Z</time></trkpt>
<trkpt lat="46.79686281138086" lon="6.515668152414118"><ele></ele><time>2014-6-22T15:14:41Z</time></trkpt>
<trkpt lat="46.79675329517719" lon="6.515473529060906"><ele></ele><time>2014-6-22T15:14:44Z</time></trkpt>
<trkpt lat="46.79670621660783" lon="6.515212345700927"><ele></ele><time>2014-6-22T15:14:47Z</time></trkpt>
<trkpt lat="46.79656992551767" lon="6.5150443788855"><ele></ele><time>2014-6-22T15:14:50Z</time></trkpt>
<trkpt lat="46.796391080528956" lon="6.515178420473761"><ele></ele><time>2014-6-22T15:14:53Z</time></trkpt>
<trkpt lat="46.796276567130114" lon="6.51548165393975"><ele></ele><time>2014-6-22T15:14:56Z</time></trkpt>
<trkpt lat="46.79614395802662" lon="6.515772095255688"><ele></ele><time>2014-6-22T15:14:59Z</time></trkpt>
<trkpt lat="46.795992937916736" lon="6.516010452260386"><ele></ele><time>2014-6-22T15:15:2Z</time></trkpt>
<trkpt lat="46.79578815829825" lon="6.5162759214884085"><ele></ele><time>2014-6-22T15:15:5Z</time></trkpt>
<trkpt lat="46.79559184754107" lon="6.516475749458175"><ele></ele><time>2014-6-22T15:15:8Z</time></trkpt>
<trkpt lat="46.795413210990525" lon="6.51663597823554"><ele></ele><time>2014-6-22T15:15:11Z</time></trkpt>
<trkpt lat="46.795342617717004" lon="6.516807466198291"><ele></ele><time>2014-6-22T15:15:14Z</time></trkpt>
<trkpt lat="46.79525392941745" lon="6.516966162660378"><ele></ele><time>2014-6-22T15:15:17Z</time></trkpt>
<trkpt lat="46.79516555591337" lon="6.517164149967666"><ele></ele><time>2014-6-22T15:15:20Z</time></trkpt>
<trkpt lat="46.79506954262683" lon="6.517529201861358"><ele></ele><time>2014-6-22T15:15:23Z</time></trkpt>
<trkpt lat="46.79492835885871" lon="6.517872177421553"><ele></ele><time>2014-6-22T15:15:26Z</time></trkpt>
<trkpt lat="46.79483988234089" lon="6.51806041042358"><ele></ele><time>2014-6-22T15:15:29Z</time></trkpt>
<trkpt lat="46.794885381194256" lon="6.51812513138143"><ele></ele><time>2014-6-22T15:15:32Z</time></trkpt>
<trkpt lat="46.79477002106131" lon="6.5183235738986"><ele></ele><time>2014-6-22T15:15:35Z</time></trkpt>
<trkpt lat="46.79477012593115" lon="6.518336670927203"><ele></ele><time>2014-6-22T15:15:38Z</time></trkpt>
<trkpt lat="46.79484166543529" lon="6.51828306019652"><ele></ele><time>2014-6-22T15:15:41Z</time></trkpt>
<trkpt lat="46.79461042901817" lon="6.518611123352127"><ele></ele><time>2014-6-22T15:15:44Z</time></trkpt>
<trkpt lat="46.79444108987448" lon="6.518813815319203"><ele></ele><time>2014-6-22T15:15:47Z</time></trkpt>
<trkpt lat="46.79417333959886" lon="6.519080335120624"><ele></ele><time>2014-6-22T15:15:50Z</time></trkpt>
<trkpt lat="46.79387734691782" lon="6.5191901484530765"><ele></ele><time>2014-6-22T15:15:53Z</time></trkpt>
<trkpt lat="46.79342865073668" lon="6.519328749106637"><ele></ele><time>2014-6-22T15:15:56Z</time></trkpt>
<trkpt lat="46.793185998572504" lon="6.5193590639050045"><ele></ele><time>2014-6-22T15:15:59Z</time></trkpt>
<trkpt lat="46.79289105291754" lon="6.519599839448034"><ele></ele><time>2014-6-22T15:16:2Z</time></trkpt>
<trkpt lat="46.79266827516336" lon="6.51986558490869"><ele></ele><time>2014-6-22T15:16:5Z</time></trkpt>
<trkpt lat="46.792695255245754" lon="6.519842198298583"><ele></ele><time>2014-6-22T15:16:8Z</time></trkpt>
<trkpt lat="46.79251704400686" lon="6.520054809782552"><ele></ele><time>2014-6-22T15:16:11Z</time></trkpt>
<trkpt lat="46.79242814877164" lon="6.520187308011974"><ele></ele><time>2014-6-22T15:16:14Z</time></trkpt>
<trkpt lat="46.792518938816244" lon="6.52029054730957"><ele></ele><time>2014-6-22T15:16:17Z</time></trkpt>
<trkpt lat="46.79250389573614" lon="6.5206575565929334"><ele></ele><time>2014-6-22T15:16:20Z</time></trkpt>
<trkpt lat="46.79247107221753" lon="6.521051065018146"><ele></ele><time>2014-6-22T15:16:23Z</time></trkpt>
<trkpt lat="46.792437196054465" lon="6.521313607842674"><ele></ele><time>2014-6-22T15:16:26Z</time></trkpt>
<trkpt lat="46.79229706320913" lon="6.521787530726298"><ele></ele><time>2014-6-22T15:16:29Z</time></trkpt>
<trkpt lat="46.79221320744458" lon="6.522548655567176"><ele></ele><time>2014-6-22T15:16:32Z</time></trkpt>
<trkpt lat="46.79214607721166" lon="6.523152315155688"><ele></ele><time>2014-6-22T15:16:35Z</time></trkpt>
<trkpt lat="46.79209756250472" lon="6.5238342464497245"><ele></ele><time>2014-6-22T15:16:38Z</time></trkpt>
<trkpt lat="46.79210070725415" lon="6.524227139497502"><ele></ele><time>2014-6-22T15:16:41Z</time></trkpt>
<trkpt lat="46.79210280300318" lon="6.524489068221387"><ele></ele><time>2014-6-22T15:16:44Z</time></trkpt>
<trkpt lat="46.791979180387195" lon="6.52477932520663"><ele></ele><time>2014-6-22T15:16:47Z</time></trkpt>
<trkpt lat="46.791856604016" lon="6.525200544639664"><ele></ele><time>2014-6-22T15:16:50Z</time></trkpt>
<trkpt lat="46.791679638679305" lon="6.525570291117576"><ele></ele><time>2014-6-22T15:16:53Z</time></trkpt>
<trkpt lat="46.7915581053151" lon="6.52612246948117"><ele></ele><time>2014-6-22T15:16:56Z</time></trkpt>
<trkpt lat="46.791525890185405" lon="6.52659454546847"><ele></ele><time>2014-6-22T15:16:59Z</time></trkpt>
<trkpt lat="46.791656206465575" lon="6.52714246031538"><ele></ele><time>2014-6-22T15:17:2Z</time></trkpt>
<trkpt lat="46.79178672892412" lon="6.527716570544409"><ele></ele><time>2014-6-22T15:17:5Z</time></trkpt>
<trkpt lat="46.79211346468665" lon="6.528077797730005"><ele></ele><time>2014-6-22T15:17:8Z</time></trkpt>
<trkpt lat="46.792441033803534" lon="6.528543801508991"><ele></ele><time>2014-6-22T15:17:11Z</time></trkpt>
<trkpt lat="46.792822778361035" lon="6.529035093263947"><ele></ele><time>2014-6-22T15:17:14Z</time></trkpt>
<trkpt lat="46.79306060385331" lon="6.5295288197614765"><ele></ele><time>2014-6-22T15:17:17Z</time></trkpt>
<trkpt lat="46.79322751003875" lon="6.530154731056118"><ele></ele><time>2014-6-22T15:17:20Z</time></trkpt>
<trkpt lat="46.793430808224436" lon="6.530832427202855"><ele></ele><time>2014-6-22T15:17:23Z</time></trkpt>
<trkpt lat="46.7937405844138" lon="6.531324955703219"><ele></ele><time>2014-6-22T15:17:26Z</time></trkpt>
<trkpt lat="46.794083427012175" lon="6.531450170338605"><ele></ele><time>2014-6-22T15:17:29Z</time></trkpt>
<trkpt lat="46.79460616565146" lon="6.531572358597643"><ele></ele><time>2014-6-22T15:17:32Z</time></trkpt>
<trkpt lat="46.794841486001694" lon="6.531751781830286"><ele></ele><time>2014-6-22T15:17:35Z</time></trkpt>
<trkpt lat="46.79513202184551" lon="6.5320874648349525"><ele></ele><time>2014-6-22T15:17:38Z</time></trkpt>
<trkpt lat="46.79562251947132" lon="6.532681769894601"><ele></ele><time>2014-6-22T15:17:41Z</time></trkpt>
<trkpt lat="46.79615003079421" lon="6.533406455674164"><ele></ele><time>2014-6-22T15:17:44Z</time></trkpt>
<trkpt lat="46.7966593405281" lon="6.534105262474515"><ele></ele><time>2014-6-22T15:17:47Z</time></trkpt>
<trkpt lat="46.79722302917029" lon="6.534855568091597"><ele></ele><time>2014-6-22T15:17:50Z</time></trkpt>
<trkpt lat="46.79747819781207" lon="6.535270472468613"><ele></ele><time>2014-6-22T15:17:53Z</time></trkpt>
<trkpt lat="46.79789609941096" lon="6.535787450721301"><ele></ele><time>2014-6-22T15:17:56Z</time></trkpt>
<trkpt lat="46.79833012650419" lon="6.536068372239322"><ele></ele><time>2014-6-22T15:17:59Z</time></trkpt>
<trkpt lat="46.7988725042578" lon="6.536399883345118"><ele></ele><time>2014-6-22T15:18:2Z</time></trkpt>
<trkpt lat="46.79921926891658" lon="6.537022873419887"><ele></ele><time>2014-6-22T15:18:5Z</time></trkpt>
<trkpt lat="46.79951020229359" lon="6.53741100517908"><ele></ele><time>2014-6-22T15:18:8Z</time></trkpt>
<trkpt lat="46.799783144717736" lon="6.537799441877966"><ele></ele><time>2014-6-22T15:18:11Z</time></trkpt>
<trkpt lat="46.800003767978865" lon="6.5383983585076955"><ele></ele><time>2014-6-22T15:18:14Z</time></trkpt>
<trkpt lat="46.800240727778906" lon="6.5387874046080405"><ele></ele><time>2014-6-22T15:18:17Z</time></trkpt>
<trkpt lat="46.80067495356959" lon="6.53909455962133"><ele></ele><time>2014-6-22T15:18:20Z</time></trkpt>
<trkpt lat="46.801000416208836" lon="6.539298731874907"><ele></ele><time>2014-6-22T15:18:23Z</time></trkpt>
<trkpt lat="46.80140051580138" lon="6.5398422727150525"><ele></ele><time>2014-6-22T15:18:26Z</time></trkpt>
<trkpt lat="46.801781593586036" lon="6.540255133323141"><ele></ele><time>2014-6-22T15:18:29Z</time></trkpt>
<trkpt lat="46.80221622705569" lon="6.5406147046588785"><ele></ele><time>2014-6-22T15:18:32Z</time></trkpt>
<trkpt lat="46.80268745589158" lon="6.541052276639614"><ele></ele><time>2014-6-22T15:18:35Z</time></trkpt>
<trkpt lat="46.80312146978155" lon="6.541333265567602"><ele></ele><time>2014-6-22T15:18:38Z</time></trkpt>
<trkpt lat="46.803718828772915" lon="6.541794953676015"><ele></ele><time>2014-6-22T15:18:41Z</time></trkpt>
<trkpt lat="46.80410072127409" lon="6.542312640967265"><ele></ele><time>2014-6-22T15:18:44Z</time></trkpt>
<trkpt lat="46.80455518591128" lon="6.542907736219117"><ele></ele><time>2014-6-22T15:18:47Z</time></trkpt>
<trkpt lat="46.80493645769414" lon="6.543346841879521"><ele></ele><time>2014-6-22T15:18:50Z</time></trkpt>
<trkpt lat="46.80532018878776" lon="6.544100346242972"><ele></ele><time>2014-6-22T15:18:53Z</time></trkpt>
<trkpt lat="46.805719855463806" lon="6.544591567194015"><ele></ele><time>2014-6-22T15:18:56Z</time></trkpt>
<trkpt lat="46.80608456479182" lon="6.545214390886843"><ele></ele><time>2014-6-22T15:18:59Z</time></trkpt>
<trkpt lat="46.806446814470945" lon="6.545522823858124"><ele></ele><time>2014-6-22T15:19:2Z</time></trkpt>
<trkpt lat="46.8066835451863" lon="6.545885747788938"><ele></ele><time>2014-6-22T15:19:5Z</time></trkpt>
<trkpt lat="46.80708340864286" lon="6.546403194661819"><ele></ele><time>2014-6-22T15:19:8Z</time></trkpt>
<trkpt lat="46.80726575876527" lon="6.546714619470075"><ele></ele><time>2014-6-22T15:19:11Z</time></trkpt>
<trkpt lat="46.80753764742013" lon="6.546972156914082"><ele></ele><time>2014-6-22T15:19:14Z</time></trkpt>
<trkpt lat="46.80795467841071" lon="6.547384519823982"><ele></ele><time>2014-6-22T15:19:17Z</time></trkpt>
<trkpt lat="46.80813723006017" lon="6.547722153750569"><ele></ele><time>2014-6-22T15:19:20Z</time></trkpt>
<trkpt lat="46.80823146548172" lon="6.54827088324969"><ele></ele><time>2014-6-22T15:19:23Z</time></trkpt>
<trkpt lat="46.80814335390575" lon="6.5485081766062345"><ele></ele><time>2014-6-22T15:19:26Z</time></trkpt>
<trkpt lat="46.807984099185695" lon="6.5488514604869055"><ele></ele><time>2014-6-22T15:19:29Z</time></trkpt>
<trkpt lat="46.807787844682146" lon="6.549064333336834"><ele></ele><time>2014-6-22T15:19:32Z</time></trkpt>
<trkpt lat="46.807698508208546" lon="6.549144420132579"><ele></ele><time>2014-6-22T15:19:35Z</time></trkpt>
<trkpt lat="46.807935634991466" lon="6.549559769747061"><ele></ele><time>2014-6-22T15:19:38Z</time></trkpt>
<trkpt lat="46.80815578905452" lon="6.550106423627369"><ele></ele><time>2014-6-22T15:19:41Z</time></trkpt>
<trkpt lat="46.808428280846115" lon="6.5504425851776995"><ele></ele><time>2014-6-22T15:19:44Z</time></trkpt>
<trkpt lat="46.808575251196494" lon="6.550833227323302"><ele></ele><time>2014-6-22T15:19:47Z</time></trkpt>
<trkpt lat="46.80863308562692" lon="6.551330157216686"><ele></ele><time>2014-6-22T15:19:50Z</time></trkpt>
<trkpt lat="46.808672115099114" lon="6.551722580150478"><ele></ele><time>2014-6-22T15:19:53Z</time></trkpt>
<trkpt lat="46.808476058514785" lon="6.551961646196528"><ele></ele><time>2014-6-22T15:19:56Z</time></trkpt>
<trkpt lat="46.80860483087042" lon="6.552326387764427"><ele></ele><time>2014-6-22T15:19:59Z</time></trkpt>
<trkpt lat="46.809022654709516" lon="6.55284360512873"><ele></ele><time>2014-6-22T15:20:2Z</time></trkpt>
<trkpt lat="46.80927816353752" lon="6.553311088269797"><ele></ele><time>2014-6-22T15:20:5Z</time></trkpt>
<trkpt lat="46.809571880498524" lon="6.5540662011899835"><ele></ele><time>2014-6-22T15:20:8Z</time></trkpt>
<trkpt lat="46.80988256907571" lon="6.554690019054778"><ele></ele><time>2014-6-22T15:20:11Z</time></trkpt>
<trkpt lat="46.81030179951892" lon="6.555390679901798"><ele></ele><time>2014-6-22T15:20:14Z</time></trkpt>
<trkpt lat="46.81055567887009" lon="6.5556485705008125"><ele></ele><time>2014-6-22T15:20:17Z</time></trkpt>
<trkpt lat="46.809881174144124" lon="6.556838848138854"><ele></ele><time>2014-6-22T15:20:20Z</time></trkpt>
<trkpt lat="46.80893883037652" lon="6.5582955184623035"><ele></ele><time>2014-6-22T15:20:23Z</time></trkpt>
<trkpt lat="46.80751739189913" lon="6.560624677770459"><ele></ele><time>2014-6-22T15:20:26Z</time></trkpt>
<trkpt lat="46.80751749252863" lon="6.560637778023217"><ele></ele><time>2014-6-22T15:20:29Z</time></trkpt>
</trkseg></trk></gpx>